<?xml version="1.0" encoding="UTF-8" standalone="no" ?>
<gpx xmlns="http://www.topografix.com/GPX/1/1" xmlns:xsi="http://www.w3.org/2001/XMLSchema-instance" xsi:schemaLocation="http://www.topografix.com/GPX/1/1 http://www.topografix.com/GPX/1/1/gpx.xsd" version="1.1" creator="VisuGPX - https://www.visugpx.com">
  <metadata>
    <name>2 116 0817 BRIORD par OPTEVOZ </name>
  </metadata>
  <trk>
    <name><![CDATA[2 116 222 000 999 BRIORD par OPTEVOZ ]]></name>
    <trkseg>
      <trkpt lat="45.66526" lon="4.95761">
        <ele>220.8</ele>
        <time>2023-04-23T08:36:27Z</time>
      </trkpt>
      <trkpt lat="45.66498" lon="4.95772">
        <ele>221.3</ele>
      </trkpt>
      <trkpt lat="45.66463" lon="4.95791">
        <ele>222.1</ele>
      </trkpt>
      <trkpt lat="45.66472" lon="4.95835">
        <ele>222.7</ele>
      </trkpt>
      <trkpt lat="45.66485" lon="4.95874">
        <ele>222.8</ele>
      </trkpt>
      <trkpt lat="45.66493" lon="4.95895">
        <ele>222.8</ele>
        <time>2023-04-23T08:36:32Z</time>
      </trkpt>
      <trkpt lat="45.66498" lon="4.95962">
        <ele>223</ele>
      </trkpt>
      <trkpt lat="45.66527" lon="4.96029">
        <ele>221.7</ele>
      </trkpt>
      <trkpt lat="45.66542" lon="4.96069">
        <ele>221.4</ele>
        <time>2023-04-23T08:36:42Z</time>
      </trkpt>
      <trkpt lat="45.66576" lon="4.96159">
        <ele>222.9</ele>
        <time>2023-04-23T08:36:57Z</time>
      </trkpt>
      <trkpt lat="45.66611" lon="4.96216">
        <ele>221.8</ele>
        <time>2023-04-23T08:37:14Z</time>
      </trkpt>
      <trkpt lat="45.66645" lon="4.96288">
        <ele>222.3</ele>
        <time>2023-04-23T08:37:21Z</time>
      </trkpt>
      <trkpt lat="45.66657" lon="4.96338">
        <ele>223.2</ele>
        <time>2023-04-23T08:37:36Z</time>
      </trkpt>
      <trkpt lat="45.66679" lon="4.96419">
        <ele>224</ele>
        <time>2023-04-23T08:37:55Z</time>
      </trkpt>
      <trkpt lat="45.66715" lon="4.96563">
        <ele>225</ele>
        <time>2023-04-23T08:38:14Z</time>
      </trkpt>
      <trkpt lat="45.66754" lon="4.96683">
        <ele>225</ele>
        <time>2023-04-23T08:38:30Z</time>
      </trkpt>
      <trkpt lat="45.66802" lon="4.96789">
        <ele>225</ele>
        <time>2023-04-23T08:38:46Z</time>
      </trkpt>
      <trkpt lat="45.66821" lon="4.96918">
        <ele>225</ele>
        <time>2023-04-23T08:39:02Z</time>
      </trkpt>
      <trkpt lat="45.66838" lon="4.97079">
        <ele>224</ele>
        <time>2023-04-23T08:39:23Z</time>
      </trkpt>
      <trkpt lat="45.66847" lon="4.97245">
        <ele>224</ele>
        <time>2023-04-23T08:39:43Z</time>
      </trkpt>
      <trkpt lat="45.66884" lon="4.97607">
        <ele>227</ele>
        <time>2023-04-23T08:40:29Z</time>
      </trkpt>
      <trkpt lat="45.66916" lon="4.97829">
        <ele>228</ele>
        <time>2023-04-23T08:40:57Z</time>
      </trkpt>
      <trkpt lat="45.6699" lon="4.98139">
        <ele>230</ele>
        <time>2023-04-23T08:41:38Z</time>
      </trkpt>
      <trkpt lat="45.67024" lon="4.98156">
        <ele>230</ele>
        <time>2023-04-23T08:41:44Z</time>
      </trkpt>
      <trkpt lat="45.67041" lon="4.98266">
        <ele>230</ele>
        <time>2023-04-23T08:41:58Z</time>
      </trkpt>
      <trkpt lat="45.67034" lon="4.98315">
        <ele>230</ele>
        <time>2023-04-23T08:42:04Z</time>
      </trkpt>
      <trkpt lat="45.67069" lon="4.98486">
        <ele>230</ele>
        <time>2023-04-23T08:42:27Z</time>
      </trkpt>
      <trkpt lat="45.6712" lon="4.98784">
        <ele>228</ele>
        <time>2023-04-23T08:43:05Z</time>
      </trkpt>
      <trkpt lat="45.67184" lon="4.9903">
        <ele>227</ele>
        <time>2023-04-23T08:43:37Z</time>
      </trkpt>
      <trkpt lat="45.67206" lon="4.99086">
        <ele>227</ele>
        <time>2023-04-23T08:43:45Z</time>
      </trkpt>
      <trkpt lat="45.6728" lon="4.99257">
        <ele>231</ele>
        <time>2023-04-23T08:44:10Z</time>
      </trkpt>
      <trkpt lat="45.67299" lon="4.99347">
        <ele>231</ele>
        <time>2023-04-23T08:44:22Z</time>
      </trkpt>
      <trkpt lat="45.67344" lon="4.99438">
        <ele>232</ele>
        <time>2023-04-23T08:44:36Z</time>
      </trkpt>
      <trkpt lat="45.67396" lon="4.99564">
        <ele>233</ele>
        <time>2023-04-23T08:44:54Z</time>
      </trkpt>
      <trkpt lat="45.67452" lon="4.99718">
        <ele>233</ele>
        <time>2023-04-23T08:45:16Z</time>
      </trkpt>
      <trkpt lat="45.6753" lon="4.99869">
        <ele>233</ele>
        <time>2023-04-23T08:45:39Z</time>
      </trkpt>
      <trkpt lat="45.67579" lon="4.99923">
        <ele>233</ele>
        <time>2023-04-23T08:45:50Z</time>
      </trkpt>
      <trkpt lat="45.67615" lon="4.99985">
        <ele>234</ele>
        <time>2023-04-23T08:46:00Z</time>
      </trkpt>
      <trkpt lat="45.67664" lon="5.00089">
        <ele>236</ele>
        <time>2023-04-23T08:46:16Z</time>
      </trkpt>
      <trkpt lat="45.67684" lon="5.00181">
        <ele>236</ele>
        <time>2023-04-23T08:46:28Z</time>
      </trkpt>
      <trkpt lat="45.67727" lon="5.00427">
        <ele>237</ele>
        <time>2023-04-23T08:46:59Z</time>
      </trkpt>
      <trkpt lat="45.67783" lon="5.00676">
        <ele>237</ele>
        <time>2023-04-23T08:47:32Z</time>
      </trkpt>
      <trkpt lat="45.6782" lon="5.00959">
        <ele>235</ele>
        <time>2023-04-23T08:48:07Z</time>
      </trkpt>
      <trkpt lat="45.67857" lon="5.01181">
        <ele>237</ele>
        <time>2023-04-23T08:48:36Z</time>
      </trkpt>
      <trkpt lat="45.67893" lon="5.0134">
        <ele>237</ele>
        <time>2023-04-23T08:48:57Z</time>
      </trkpt>
      <trkpt lat="45.67931" lon="5.0144">
        <ele>239</ele>
        <time>2023-04-23T08:49:11Z</time>
      </trkpt>
      <trkpt lat="45.67943" lon="5.01499">
        <ele>241</ele>
        <time>2023-04-23T08:49:18Z</time>
      </trkpt>
      <trkpt lat="45.67926" lon="5.01702">
        <ele>244</ele>
        <time>2023-04-23T08:49:44Z</time>
      </trkpt>
      <trkpt lat="45.67886" lon="5.01966">
        <ele>244</ele>
        <time>2023-04-23T08:50:17Z</time>
      </trkpt>
      <trkpt lat="45.6791" lon="5.02087">
        <ele>248</ele>
        <time>2023-04-23T08:50:33Z</time>
      </trkpt>
      <trkpt lat="45.67988" lon="5.02132">
        <ele>246</ele>
        <time>2023-04-23T08:50:48Z</time>
      </trkpt>
      <trkpt lat="45.68133" lon="5.02221">
        <ele>257</ele>
        <time>2023-04-23T08:51:16Z</time>
      </trkpt>
      <trkpt lat="45.6818" lon="5.02258">
        <ele>263</ele>
        <time>2023-04-23T08:51:26Z</time>
      </trkpt>
      <trkpt lat="45.68208" lon="5.02298">
        <ele>267</ele>
        <time>2023-04-23T08:51:33Z</time>
      </trkpt>
      <trkpt lat="45.68304" lon="5.02383">
        <ele>271</ele>
        <time>2023-04-23T08:51:53Z</time>
      </trkpt>
      <trkpt lat="45.68358" lon="5.02443">
        <ele>274</ele>
        <time>2023-04-23T08:52:05Z</time>
      </trkpt>
      <trkpt lat="45.6838" lon="5.02506">
        <ele>276</ele>
        <time>2023-04-23T08:52:14Z</time>
      </trkpt>
      <trkpt lat="45.68448" lon="5.02527">
        <ele>280</ele>
        <time>2023-04-23T08:52:26Z</time>
      </trkpt>
      <trkpt lat="45.68473" lon="5.02479">
        <ele>282</ele>
        <time>2023-04-23T08:52:33Z</time>
      </trkpt>
      <trkpt lat="45.68515" lon="5.02481">
        <ele>285</ele>
        <time>2023-04-23T08:52:41Z</time>
      </trkpt>
      <trkpt lat="45.68547" lon="5.02492">
        <ele>285</ele>
        <time>2023-04-23T08:52:47Z</time>
      </trkpt>
      <trkpt lat="45.68539" lon="5.02524">
        <ele>285</ele>
        <time>2023-04-23T08:52:51Z</time>
      </trkpt>
      <trkpt lat="45.6853" lon="5.02615">
        <ele>283</ele>
        <time>2023-04-23T08:53:02Z</time>
      </trkpt>
      <trkpt lat="45.68539" lon="5.02719">
        <ele>281</ele>
        <time>2023-04-23T08:53:15Z</time>
      </trkpt>
      <trkpt lat="45.68539" lon="5.02736">
        <ele>281</ele>
        <time>2023-04-23T08:53:18Z</time>
      </trkpt>
      <trkpt lat="45.68531" lon="5.02804">
        <ele>281</ele>
        <time>2023-04-23T08:53:26Z</time>
      </trkpt>
      <trkpt lat="45.68527" lon="5.02821">
        <ele>280</ele>
        <time>2023-04-23T08:53:28Z</time>
      </trkpt>
      <trkpt lat="45.68508" lon="5.02869">
        <ele>280</ele>
        <time>2023-04-23T08:53:35Z</time>
      </trkpt>
      <trkpt lat="45.68491" lon="5.02898">
        <ele>280</ele>
        <time>2023-04-23T08:53:40Z</time>
      </trkpt>
      <trkpt lat="45.68451" lon="5.0295">
        <ele>280</ele>
        <time>2023-04-23T08:53:50Z</time>
      </trkpt>
      <trkpt lat="45.6843" lon="5.02996">
        <ele>280</ele>
        <time>2023-04-23T08:53:56Z</time>
      </trkpt>
      <trkpt lat="45.68416" lon="5.03058">
        <ele>281</ele>
        <time>2023-04-23T08:54:04Z</time>
      </trkpt>
      <trkpt lat="45.68398" lon="5.0316">
        <ele>283</ele>
        <time>2023-04-23T08:54:18Z</time>
      </trkpt>
      <trkpt lat="45.68379" lon="5.03242">
        <ele>282</ele>
        <time>2023-04-23T08:54:28Z</time>
      </trkpt>
      <trkpt lat="45.68366" lon="5.03283">
        <ele>281</ele>
        <time>2023-04-23T08:54:34Z</time>
      </trkpt>
      <trkpt lat="45.68366" lon="5.03293">
        <ele>281</ele>
        <time>2023-04-23T08:54:35Z</time>
      </trkpt>
      <trkpt lat="45.68348" lon="5.03366">
        <ele>280</ele>
        <time>2023-04-23T08:54:45Z</time>
      </trkpt>
      <trkpt lat="45.68353" lon="5.0338">
        <ele>280</ele>
        <time>2023-04-23T08:54:47Z</time>
      </trkpt>
      <trkpt lat="45.68321" lon="5.03414">
        <ele>280.1</ele>
      </trkpt>
      <trkpt lat="45.68303" lon="5.03464">
        <ele>279.5</ele>
        <time>2023-04-23T08:54:56Z</time>
      </trkpt>
      <trkpt lat="45.6828" lon="5.0351">
        <ele>279.3</ele>
        <time>2023-04-23T08:54:58Z</time>
      </trkpt>
      <trkpt lat="45.68235" lon="5.03581">
        <ele>281.2</ele>
        <time>2023-04-23T08:54:59Z</time>
      </trkpt>
      <trkpt lat="45.68223" lon="5.03657">
        <ele>280.4</ele>
        <time>2023-04-23T08:55:27Z</time>
      </trkpt>
      <trkpt lat="45.68219" lon="5.03758">
        <ele>280.2</ele>
        <time>2023-04-23T08:55:33Z</time>
      </trkpt>
      <trkpt lat="45.68209" lon="5.03842">
        <ele>281.5</ele>
      </trkpt>
      <trkpt lat="45.68202" lon="5.03915">
        <ele>281.9</ele>
        <time>2023-04-23T08:55:48Z</time>
      </trkpt>
      <trkpt lat="45.68169" lon="5.04001">
        <ele>282.9</ele>
        <time>2023-04-23T08:55:53Z</time>
      </trkpt>
      <trkpt lat="45.68133" lon="5.04078">
        <ele>282.2</ele>
        <time>2023-04-23T08:55:59Z</time>
      </trkpt>
      <trkpt lat="45.68108" lon="5.04161">
        <ele>284.5</ele>
        <time>2023-04-23T08:56:05Z</time>
      </trkpt>
      <trkpt lat="45.6808" lon="5.04223">
        <ele>284.8</ele>
      </trkpt>
      <trkpt lat="45.68053" lon="5.04276">
        <ele>284.7</ele>
      </trkpt>
      <trkpt lat="45.68021" lon="5.04335">
        <ele>283.9</ele>
      </trkpt>
      <trkpt lat="45.67991" lon="5.0439">
        <ele>284.1</ele>
      </trkpt>
      <trkpt lat="45.67973" lon="5.04436">
        <ele>284.1</ele>
      </trkpt>
      <trkpt lat="45.67951" lon="5.04495">
        <ele>283.5</ele>
      </trkpt>
      <trkpt lat="45.67927" lon="5.04543">
        <ele>283.6</ele>
      </trkpt>
      <trkpt lat="45.67902" lon="5.04601">
        <ele>284.1</ele>
      </trkpt>
      <trkpt lat="45.67886" lon="5.04655">
        <ele>285.3</ele>
      </trkpt>
      <trkpt lat="45.67867" lon="5.04712">
        <ele>285.7</ele>
      </trkpt>
      <trkpt lat="45.67849" lon="5.04754">
        <ele>286.4</ele>
      </trkpt>
      <trkpt lat="45.67836" lon="5.04819">
        <ele>286</ele>
      </trkpt>
      <trkpt lat="45.67814" lon="5.04867">
        <ele>286.9</ele>
      </trkpt>
      <trkpt lat="45.67797" lon="5.04924">
        <ele>286.6</ele>
      </trkpt>
      <trkpt lat="45.67771" lon="5.04969">
        <ele>285.5</ele>
      </trkpt>
      <trkpt lat="45.67751" lon="5.05006">
        <ele>284.8</ele>
      </trkpt>
      <trkpt lat="45.67718" lon="5.05037">
        <ele>285.8</ele>
      </trkpt>
      <trkpt lat="45.6768" lon="5.05073">
        <ele>286.6</ele>
      </trkpt>
      <trkpt lat="45.67639" lon="5.05109">
        <ele>288.1</ele>
      </trkpt>
      <trkpt lat="45.67615" lon="5.05155">
        <ele>288.2</ele>
      </trkpt>
      <trkpt lat="45.67602" lon="5.05214">
        <ele>286.8</ele>
      </trkpt>
      <trkpt lat="45.67597" lon="5.05274">
        <ele>286.5</ele>
      </trkpt>
      <trkpt lat="45.67588" lon="5.05328">
        <ele>288.6</ele>
      </trkpt>
      <trkpt lat="45.67577" lon="5.05385">
        <ele>290.8</ele>
      </trkpt>
      <trkpt lat="45.67548" lon="5.0541">
        <ele>291.4</ele>
      </trkpt>
      <trkpt lat="45.67515" lon="5.05412">
        <ele>291.1</ele>
      </trkpt>
      <trkpt lat="45.67526" lon="5.05472">
        <ele>291.4</ele>
      </trkpt>
      <trkpt lat="45.67524" lon="5.05529">
        <ele>291.6</ele>
      </trkpt>
      <trkpt lat="45.67511" lon="5.05589">
        <ele>292.4</ele>
      </trkpt>
      <trkpt lat="45.67506" lon="5.05627">
        <ele>292.2</ele>
      </trkpt>
      <trkpt lat="45.67494" lon="5.05667">
        <ele>291.9</ele>
      </trkpt>
      <trkpt lat="45.67518" lon="5.05714">
        <ele>290.3</ele>
      </trkpt>
      <trkpt lat="45.67538" lon="5.05751">
        <ele>289.1</ele>
      </trkpt>
      <trkpt lat="45.67557" lon="5.05815">
        <ele>288.4</ele>
      </trkpt>
      <trkpt lat="45.67573" lon="5.05867">
        <ele>285.5</ele>
      </trkpt>
      <trkpt lat="45.67586" lon="5.05906">
        <ele>281.8</ele>
      </trkpt>
      <trkpt lat="45.67602" lon="5.05942">
        <ele>278.4</ele>
      </trkpt>
      <trkpt lat="45.67632" lon="5.05979">
        <ele>274.5</ele>
      </trkpt>
      <trkpt lat="45.67664" lon="5.06">
        <ele>271.3</ele>
      </trkpt>
      <trkpt lat="45.6769" lon="5.0602">
        <ele>269.9</ele>
      </trkpt>
      <trkpt lat="45.67712" lon="5.06046">
        <ele>268.8</ele>
      </trkpt>
      <trkpt lat="45.67736" lon="5.06077">
        <ele>267.6</ele>
      </trkpt>
      <trkpt lat="45.67757" lon="5.061">
        <ele>266.3</ele>
      </trkpt>
      <trkpt lat="45.67788" lon="5.06142">
        <ele>263.8</ele>
      </trkpt>
      <trkpt lat="45.67811" lon="5.06168">
        <ele>262</ele>
      </trkpt>
      <trkpt lat="45.67856" lon="5.06203">
        <ele>257</ele>
      </trkpt>
      <trkpt lat="45.67886" lon="5.06215">
        <ele>253.4</ele>
      </trkpt>
      <trkpt lat="45.67887" lon="5.06267">
        <ele>248</ele>
      </trkpt>
      <trkpt lat="45.67874" lon="5.06308">
        <ele>245.2</ele>
      </trkpt>
      <trkpt lat="45.67858" lon="5.06364">
        <ele>243.4</ele>
      </trkpt>
      <trkpt lat="45.67904" lon="5.0635">
        <ele>240.9</ele>
      </trkpt>
      <trkpt lat="45.67931" lon="5.06316">
        <ele>240.5</ele>
      </trkpt>
      <trkpt lat="45.67972" lon="5.06291">
        <ele>239.4</ele>
      </trkpt>
      <trkpt lat="45.68013" lon="5.06268">
        <ele>238.1</ele>
      </trkpt>
      <trkpt lat="45.68057" lon="5.06254">
        <ele>237.5</ele>
      </trkpt>
      <trkpt lat="45.68092" lon="5.06231">
        <ele>236.8</ele>
      </trkpt>
      <trkpt lat="45.68137" lon="5.06211">
        <ele>237.1</ele>
      </trkpt>
      <trkpt lat="45.68177" lon="5.062">
        <ele>237.7</ele>
      </trkpt>
      <trkpt lat="45.68225" lon="5.06183">
        <ele>237.9</ele>
      </trkpt>
      <trkpt lat="45.68258" lon="5.06174">
        <ele>238.1</ele>
      </trkpt>
      <trkpt lat="45.68287" lon="5.06156">
        <ele>238.5</ele>
      </trkpt>
      <trkpt lat="45.6832" lon="5.06139">
        <ele>238.7</ele>
      </trkpt>
      <trkpt lat="45.68362" lon="5.06127">
        <ele>239.2</ele>
      </trkpt>
      <trkpt lat="45.68361" lon="5.06171">
        <ele>239.4</ele>
      </trkpt>
      <trkpt lat="45.68354" lon="5.06219">
        <ele>239.7</ele>
      </trkpt>
      <trkpt lat="45.68338" lon="5.06281">
        <ele>240</ele>
      </trkpt>
      <trkpt lat="45.68319" lon="5.0633">
        <ele>239.8</ele>
      </trkpt>
      <trkpt lat="45.68295" lon="5.06364">
        <ele>239.4</ele>
      </trkpt>
      <trkpt lat="45.68272" lon="5.06401">
        <ele>239.1</ele>
      </trkpt>
      <trkpt lat="45.68242" lon="5.06451">
        <ele>240</ele>
      </trkpt>
      <trkpt lat="45.68208" lon="5.06485">
        <ele>240.1</ele>
      </trkpt>
      <trkpt lat="45.68188" lon="5.06528">
        <ele>239.5</ele>
      </trkpt>
      <trkpt lat="45.68162" lon="5.06567">
        <ele>238.2</ele>
      </trkpt>
      <trkpt lat="45.68146" lon="5.06616">
        <ele>238.5</ele>
      </trkpt>
      <trkpt lat="45.6813" lon="5.06658">
        <ele>239.3</ele>
      </trkpt>
      <trkpt lat="45.68138" lon="5.06705">
        <ele>240.7</ele>
      </trkpt>
      <trkpt lat="45.6815" lon="5.06763">
        <ele>241.8</ele>
      </trkpt>
      <trkpt lat="45.68176" lon="5.068">
        <ele>241.4</ele>
      </trkpt>
      <trkpt lat="45.68211" lon="5.06845">
        <ele>240.3</ele>
      </trkpt>
      <trkpt lat="45.68245" lon="5.06869">
        <ele>239.6</ele>
      </trkpt>
      <trkpt lat="45.68289" lon="5.06879">
        <ele>240.3</ele>
      </trkpt>
      <trkpt lat="45.68321" lon="5.06875">
        <ele>241.2</ele>
      </trkpt>
      <trkpt lat="45.68443" lon="5.06887">
        <ele>243.3</ele>
      </trkpt>
      <trkpt lat="45.68624" lon="5.06928">
        <ele>243.7</ele>
      </trkpt>
      <trkpt lat="45.68774" lon="5.06966">
        <ele>244</ele>
        <time>2023-04-23T09:04:42Z</time>
      </trkpt>
      <trkpt lat="45.68781" lon="5.06977">
        <ele>244</ele>
        <time>2023-04-23T09:04:44Z</time>
      </trkpt>
      <trkpt lat="45.68787" lon="5.07055">
        <ele>244</ele>
        <time>2023-04-23T09:04:54Z</time>
      </trkpt>
      <trkpt lat="45.68862" lon="5.07674">
        <ele>246</ele>
        <time>2023-04-23T09:06:12Z</time>
      </trkpt>
      <trkpt lat="45.68884" lon="5.07895">
        <ele>247</ele>
        <time>2023-04-23T09:06:40Z</time>
      </trkpt>
      <trkpt lat="45.68884" lon="5.0792">
        <ele>247</ele>
        <time>2023-04-23T09:06:43Z</time>
      </trkpt>
      <trkpt lat="45.68856" lon="5.08088">
        <ele>251</ele>
        <time>2023-04-23T09:07:04Z</time>
      </trkpt>
      <trkpt lat="45.68829" lon="5.08232">
        <ele>251</ele>
        <time>2023-04-23T09:07:23Z</time>
      </trkpt>
      <trkpt lat="45.6874" lon="5.08682">
        <ele>252</ele>
        <time>2023-04-23T09:08:21Z</time>
      </trkpt>
      <trkpt lat="45.6874" lon="5.08702">
        <ele>252</ele>
        <time>2023-04-23T09:08:24Z</time>
      </trkpt>
      <trkpt lat="45.68736" lon="5.08706">
        <ele>252</ele>
        <time>2023-04-23T09:08:24Z</time>
      </trkpt>
      <trkpt lat="45.68635" lon="5.09225">
        <ele>255</ele>
        <time>2023-04-23T09:09:31Z</time>
      </trkpt>
      <trkpt lat="45.68609" lon="5.09338">
        <ele>257</ele>
        <time>2023-04-23T09:09:46Z</time>
      </trkpt>
      <trkpt lat="45.68593" lon="5.09511">
        <ele>257</ele>
        <time>2023-04-23T09:10:08Z</time>
      </trkpt>
      <trkpt lat="45.68608" lon="5.09709">
        <ele>260</ele>
        <time>2023-04-23T09:10:33Z</time>
      </trkpt>
      <trkpt lat="45.68596" lon="5.10025">
        <ele>264</ele>
        <time>2023-04-23T09:11:12Z</time>
      </trkpt>
      <trkpt lat="45.68599" lon="5.10124">
        <ele>266</ele>
        <time>2023-04-23T09:11:24Z</time>
      </trkpt>
      <trkpt lat="45.68629" lon="5.10411">
        <ele>270</ele>
        <time>2023-04-23T09:12:00Z</time>
      </trkpt>
      <trkpt lat="45.68634" lon="5.10432">
        <ele>270</ele>
        <time>2023-04-23T09:12:03Z</time>
      </trkpt>
      <trkpt lat="45.6865" lon="5.10471">
        <ele>271</ele>
        <time>2023-04-23T09:12:09Z</time>
      </trkpt>
      <trkpt lat="45.68714" lon="5.10599">
        <ele>272</ele>
        <time>2023-04-23T09:12:28Z</time>
      </trkpt>
      <trkpt lat="45.6877" lon="5.10702">
        <ele>273</ele>
        <time>2023-04-23T09:12:45Z</time>
      </trkpt>
      <trkpt lat="45.68805" lon="5.10789">
        <ele>275</ele>
        <time>2023-04-23T09:12:57Z</time>
      </trkpt>
      <trkpt lat="45.68816" lon="5.10803">
        <ele>276</ele>
        <time>2023-04-23T09:13:00Z</time>
      </trkpt>
      <trkpt lat="45.68829" lon="5.10813">
        <ele>277</ele>
        <time>2023-04-23T09:13:02Z</time>
      </trkpt>
      <trkpt lat="45.68857" lon="5.10829">
        <ele>277</ele>
        <time>2023-04-23T09:13:08Z</time>
      </trkpt>
      <trkpt lat="45.68868" lon="5.10843">
        <ele>277</ele>
        <time>2023-04-23T09:13:10Z</time>
      </trkpt>
      <trkpt lat="45.68894" lon="5.10916">
        <ele>279</ele>
        <time>2023-04-23T09:13:20Z</time>
      </trkpt>
      <trkpt lat="45.68917" lon="5.10971">
        <ele>279</ele>
        <time>2023-04-23T09:13:28Z</time>
      </trkpt>
      <trkpt lat="45.68934" lon="5.11031">
        <ele>279</ele>
        <time>2023-04-23T09:13:36Z</time>
      </trkpt>
      <trkpt lat="45.6894" lon="5.11043">
        <ele>279</ele>
        <time>2023-04-23T09:13:38Z</time>
      </trkpt>
      <trkpt lat="45.68948" lon="5.11054">
        <ele>279</ele>
        <time>2023-04-23T09:13:40Z</time>
      </trkpt>
      <trkpt lat="45.68986" lon="5.11083">
        <ele>279</ele>
        <time>2023-04-23T09:13:48Z</time>
      </trkpt>
      <trkpt lat="45.69004" lon="5.11101">
        <ele>279</ele>
        <time>2023-04-23T09:13:52Z</time>
      </trkpt>
      <trkpt lat="45.69054" lon="5.11161">
        <ele>277</ele>
        <time>2023-04-23T09:14:03Z</time>
      </trkpt>
      <trkpt lat="45.69081" lon="5.11189">
        <ele>277</ele>
        <time>2023-04-23T09:14:09Z</time>
      </trkpt>
      <trkpt lat="45.69098" lon="5.11212">
        <ele>277</ele>
        <time>2023-04-23T09:14:14Z</time>
      </trkpt>
      <trkpt lat="45.69115" lon="5.11262">
        <ele>276</ele>
        <time>2023-04-23T09:14:20Z</time>
      </trkpt>
      <trkpt lat="45.69129" lon="5.11293">
        <ele>275</ele>
        <time>2023-04-23T09:14:25Z</time>
      </trkpt>
      <trkpt lat="45.69165" lon="5.11392">
        <ele>274</ele>
        <time>2023-04-23T09:14:39Z</time>
      </trkpt>
      <trkpt lat="45.69174" lon="5.11422">
        <ele>274</ele>
        <time>2023-04-23T09:14:43Z</time>
      </trkpt>
      <trkpt lat="45.69179" lon="5.11503">
        <ele>272</ele>
        <time>2023-04-23T09:14:53Z</time>
      </trkpt>
      <trkpt lat="45.69168" lon="5.11613">
        <ele>271.3</ele>
      </trkpt>
      <trkpt lat="45.69206" lon="5.11702">
        <ele>270.3</ele>
      </trkpt>
      <trkpt lat="45.69243" lon="5.11894">
        <ele>263</ele>
        <time>2023-04-23T09:15:43Z</time>
      </trkpt>
      <trkpt lat="45.69269" lon="5.11995">
        <ele>261</ele>
        <time>2023-04-23T09:15:57Z</time>
      </trkpt>
      <trkpt lat="45.69267" lon="5.12064">
        <ele>260</ele>
        <time>2023-04-23T09:16:05Z</time>
      </trkpt>
      <trkpt lat="45.69249" lon="5.12131">
        <ele>258</ele>
        <time>2023-04-23T09:16:14Z</time>
      </trkpt>
      <trkpt lat="45.69249" lon="5.12203">
        <ele>257</ele>
        <time>2023-04-23T09:16:23Z</time>
      </trkpt>
      <trkpt lat="45.69239" lon="5.12286">
        <ele>256</ele>
        <time>2023-04-23T09:16:33Z</time>
      </trkpt>
      <trkpt lat="45.69246" lon="5.12338">
        <ele>256.9</ele>
      </trkpt>
      <trkpt lat="45.69264" lon="5.12405">
        <ele>255.9</ele>
      </trkpt>
      <trkpt lat="45.69284" lon="5.12486">
        <ele>256.2</ele>
      </trkpt>
      <trkpt lat="45.69301" lon="5.12604">
        <ele>254.3</ele>
      </trkpt>
      <trkpt lat="45.69326" lon="5.12688">
        <ele>252</ele>
      </trkpt>
      <trkpt lat="45.69373" lon="5.12773">
        <ele>251.7</ele>
      </trkpt>
      <trkpt lat="45.69418" lon="5.12829">
        <ele>253.2</ele>
      </trkpt>
      <trkpt lat="45.69461" lon="5.12898">
        <ele>254.1</ele>
      </trkpt>
      <trkpt lat="45.69488" lon="5.12958">
        <ele>253.5</ele>
      </trkpt>
      <trkpt lat="45.69449" lon="5.13025">
        <ele>249.5</ele>
      </trkpt>
      <trkpt lat="45.69407" lon="5.13111">
        <ele>243.9</ele>
      </trkpt>
      <trkpt lat="45.69376" lon="5.13161">
        <ele>241.1</ele>
      </trkpt>
      <trkpt lat="45.69381" lon="5.13224">
        <ele>238.8</ele>
      </trkpt>
      <trkpt lat="45.694" lon="5.13289">
        <ele>236.1</ele>
      </trkpt>
      <trkpt lat="45.69398" lon="5.13346">
        <ele>230.9</ele>
      </trkpt>
      <trkpt lat="45.6938" lon="5.13443">
        <ele>220.8</ele>
      </trkpt>
      <trkpt lat="45.69374" lon="5.13538">
        <ele>218.2</ele>
      </trkpt>
      <trkpt lat="45.69376" lon="5.1363">
        <ele>219.2</ele>
      </trkpt>
      <trkpt lat="45.69389" lon="5.13717">
        <ele>223.3</ele>
      </trkpt>
      <trkpt lat="45.69402" lon="5.1381">
        <ele>226.6</ele>
      </trkpt>
      <trkpt lat="45.69417" lon="5.13878">
        <ele>227.4</ele>
      </trkpt>
      <trkpt lat="45.69457" lon="5.14013">
        <ele>234.5</ele>
      </trkpt>
      <trkpt lat="45.69464" lon="5.14102">
        <ele>228.1</ele>
      </trkpt>
      <trkpt lat="45.69457" lon="5.1419">
        <ele>220.9</ele>
      </trkpt>
      <trkpt lat="45.69466" lon="5.14305">
        <ele>216.6</ele>
      </trkpt>
      <trkpt lat="45.69486" lon="5.14383">
        <ele>214.2</ele>
      </trkpt>
      <trkpt lat="45.69526" lon="5.14457">
        <ele>214.4</ele>
      </trkpt>
      <trkpt lat="45.69613" lon="5.14538">
        <ele>218.6</ele>
      </trkpt>
      <trkpt lat="45.6967" lon="5.14585">
        <ele>221.5</ele>
      </trkpt>
      <trkpt lat="45.69747" lon="5.14631">
        <ele>229.8</ele>
      </trkpt>
      <trkpt lat="45.69816" lon="5.1472">
        <ele>227.8</ele>
      </trkpt>
      <trkpt lat="45.69884" lon="5.14822">
        <ele>225.5</ele>
      </trkpt>
      <trkpt lat="45.69925" lon="5.14876">
        <ele>227</ele>
      </trkpt>
      <trkpt lat="45.69984" lon="5.14951">
        <ele>227.5</ele>
      </trkpt>
      <trkpt lat="45.70046" lon="5.15027">
        <ele>221.6</ele>
      </trkpt>
      <trkpt lat="45.70117" lon="5.15059">
        <ele>216.3</ele>
      </trkpt>
      <trkpt lat="45.70214" lon="5.1507">
        <ele>212.8</ele>
      </trkpt>
      <trkpt lat="45.7031" lon="5.15072">
        <ele>212.1</ele>
      </trkpt>
      <trkpt lat="45.7039" lon="5.15092">
        <ele>210.2</ele>
      </trkpt>
      <trkpt lat="45.70476" lon="5.15109">
        <ele>208.5</ele>
      </trkpt>
      <trkpt lat="45.7056" lon="5.15139">
        <ele>207.5</ele>
      </trkpt>
      <trkpt lat="45.70652" lon="5.15185">
        <ele>207.4</ele>
      </trkpt>
      <trkpt lat="45.70746" lon="5.15237">
        <ele>208.1</ele>
      </trkpt>
      <trkpt lat="45.70863" lon="5.15301">
        <ele>207.8</ele>
      </trkpt>
      <trkpt lat="45.7096" lon="5.15334">
        <ele>208.5</ele>
      </trkpt>
      <trkpt lat="45.71068" lon="5.15381">
        <ele>207.6</ele>
      </trkpt>
      <trkpt lat="45.71163" lon="5.15414">
        <ele>208</ele>
      </trkpt>
      <trkpt lat="45.71266" lon="5.15467">
        <ele>207.7</ele>
      </trkpt>
      <trkpt lat="45.71349" lon="5.15498">
        <ele>207.6</ele>
      </trkpt>
      <trkpt lat="45.71441" lon="5.15495">
        <ele>206.4</ele>
      </trkpt>
      <trkpt lat="45.7151" lon="5.15581">
        <ele>207</ele>
      </trkpt>
      <trkpt lat="45.71539" lon="5.15948">
        <ele>207.9</ele>
      </trkpt>
      <trkpt lat="45.71583" lon="5.16408">
        <ele>207</ele>
      </trkpt>
      <trkpt lat="45.71616" lon="5.16772">
        <ele>206.9</ele>
      </trkpt>
      <trkpt lat="45.71652" lon="5.17285">
        <ele>210.1</ele>
      </trkpt>
      <trkpt lat="45.71661" lon="5.17718">
        <ele>208.7</ele>
      </trkpt>
      <trkpt lat="45.71693" lon="5.18193">
        <ele>209.1</ele>
      </trkpt>
      <trkpt lat="45.71726" lon="5.18671">
        <ele>209.3</ele>
      </trkpt>
      <trkpt lat="45.71716" lon="5.18791">
        <ele>208.7</ele>
      </trkpt>
      <trkpt lat="45.7172" lon="5.18972">
        <ele>207.3</ele>
      </trkpt>
      <trkpt lat="45.71717" lon="5.19363">
        <ele>208.4</ele>
      </trkpt>
      <trkpt lat="45.71746" lon="5.19511">
        <ele>208</ele>
      </trkpt>
      <trkpt lat="45.71808" lon="5.1973">
        <ele>208.2</ele>
      </trkpt>
      <trkpt lat="45.71922" lon="5.20133">
        <ele>208.4</ele>
      </trkpt>
      <trkpt lat="45.72014" lon="5.20528">
        <ele>206.7</ele>
      </trkpt>
      <trkpt lat="45.72141" lon="5.20986">
        <ele>208.3</ele>
      </trkpt>
      <trkpt lat="45.72235" lon="5.21375">
        <ele>210.2</ele>
      </trkpt>
      <trkpt lat="45.72314" lon="5.21669">
        <ele>208.2</ele>
      </trkpt>
      <trkpt lat="45.72303" lon="5.21754">
        <ele>209.1</ele>
      </trkpt>
      <trkpt lat="45.7233" lon="5.21771">
        <ele>209.5</ele>
      </trkpt>
      <trkpt lat="45.72352" lon="5.21919">
        <ele>209.8</ele>
      </trkpt>
      <trkpt lat="45.72366" lon="5.221">
        <ele>208.8</ele>
      </trkpt>
      <trkpt lat="45.72376" lon="5.22473">
        <ele>207.7</ele>
      </trkpt>
      <trkpt lat="45.72366" lon="5.22587">
        <ele>207</ele>
      </trkpt>
      <trkpt lat="45.72384" lon="5.22692">
        <ele>207.7</ele>
      </trkpt>
      <trkpt lat="45.72372" lon="5.22971">
        <ele>210.1</ele>
      </trkpt>
      <trkpt lat="45.72354" lon="5.23059">
        <ele>210.6</ele>
      </trkpt>
      <trkpt lat="45.72386" lon="5.23296">
        <ele>210.2</ele>
      </trkpt>
      <trkpt lat="45.72374" lon="5.23413">
        <ele>210</ele>
      </trkpt>
      <trkpt lat="45.72381" lon="5.23563">
        <ele>212.5</ele>
      </trkpt>
      <trkpt lat="45.724" lon="5.2377">
        <ele>213</ele>
      </trkpt>
      <trkpt lat="45.72406" lon="5.23913">
        <ele>213.9</ele>
      </trkpt>
      <trkpt lat="45.72422" lon="5.23972">
        <ele>217.8</ele>
      </trkpt>
      <trkpt lat="45.72441" lon="5.2409">
        <ele>227.3</ele>
      </trkpt>
      <trkpt lat="45.72477" lon="5.24356">
        <ele>228.6</ele>
      </trkpt>
      <trkpt lat="45.72503" lon="5.24634">
        <ele>216.2</ele>
      </trkpt>
      <trkpt lat="45.72456" lon="5.24787">
        <ele>219.9</ele>
      </trkpt>
      <trkpt lat="45.72433" lon="5.24932">
        <ele>227.2</ele>
      </trkpt>
      <trkpt lat="45.72419" lon="5.25109">
        <ele>225.1</ele>
      </trkpt>
      <trkpt lat="45.72404" lon="5.2535">
        <ele>224.3</ele>
      </trkpt>
      <trkpt lat="45.72536" lon="5.25503">
        <ele>224.8</ele>
      </trkpt>
      <trkpt lat="45.72559" lon="5.25561">
        <ele>222.2</ele>
      </trkpt>
      <trkpt lat="45.72615" lon="5.25526">
        <ele>223.1</ele>
      </trkpt>
      <trkpt lat="45.72679" lon="5.25472">
        <ele>223.1</ele>
      </trkpt>
      <trkpt lat="45.72721" lon="5.25471">
        <ele>222.2</ele>
      </trkpt>
      <trkpt lat="45.72786" lon="5.25475">
        <ele>220.5</ele>
      </trkpt>
      <trkpt lat="45.72877" lon="5.2546">
        <ele>215.5</ele>
      </trkpt>
      <trkpt lat="45.7295" lon="5.25477">
        <ele>214.2</ele>
      </trkpt>
      <trkpt lat="45.72971" lon="5.25545">
        <ele>216.1</ele>
      </trkpt>
      <trkpt lat="45.72983" lon="5.25609">
        <ele>218.3</ele>
      </trkpt>
      <trkpt lat="45.73055" lon="5.25632">
        <ele>217</ele>
      </trkpt>
      <trkpt lat="45.73117" lon="5.25673">
        <ele>218.4</ele>
      </trkpt>
      <trkpt lat="45.7322" lon="5.25796">
        <ele>235</ele>
      </trkpt>
      <trkpt lat="45.73185" lon="5.25861">
        <ele>229.8</ele>
      </trkpt>
      <trkpt lat="45.7316" lon="5.25955">
        <ele>226.5</ele>
      </trkpt>
      <trkpt lat="45.73138" lon="5.26059">
        <ele>226.4</ele>
      </trkpt>
      <trkpt lat="45.73105" lon="5.26194">
        <ele>237.8</ele>
      </trkpt>
      <trkpt lat="45.73037" lon="5.26324">
        <ele>242.1</ele>
      </trkpt>
      <trkpt lat="45.73005" lon="5.26376">
        <ele>246.6</ele>
      </trkpt>
      <trkpt lat="45.73022" lon="5.26494">
        <ele>248.2</ele>
      </trkpt>
      <trkpt lat="45.73043" lon="5.2662">
        <ele>255.5</ele>
      </trkpt>
      <trkpt lat="45.73047" lon="5.26721">
        <ele>269.3</ele>
      </trkpt>
      <trkpt lat="45.73067" lon="5.26821">
        <ele>284.2</ele>
      </trkpt>
      <trkpt lat="45.73097" lon="5.2694">
        <ele>292.2</ele>
      </trkpt>
      <trkpt lat="45.73108" lon="5.27036">
        <ele>289.5</ele>
      </trkpt>
      <trkpt lat="45.73134" lon="5.27133">
        <ele>299.2</ele>
      </trkpt>
      <trkpt lat="45.73119" lon="5.27205">
        <ele>294.6</ele>
      </trkpt>
      <trkpt lat="45.73117" lon="5.27291">
        <ele>296.3</ele>
      </trkpt>
      <trkpt lat="45.73135" lon="5.27368">
        <ele>303.5</ele>
      </trkpt>
      <trkpt lat="45.73167" lon="5.27478">
        <ele>316</ele>
      </trkpt>
      <trkpt lat="45.73185" lon="5.27577">
        <ele>324.4</ele>
      </trkpt>
      <trkpt lat="45.73195" lon="5.27686">
        <ele>325.8</ele>
      </trkpt>
      <trkpt lat="45.73204" lon="5.27794">
        <ele>323.1</ele>
      </trkpt>
      <trkpt lat="45.73214" lon="5.27919">
        <ele>322.3</ele>
      </trkpt>
      <trkpt lat="45.73239" lon="5.28041">
        <ele>326.1</ele>
      </trkpt>
      <trkpt lat="45.73283" lon="5.2817">
        <ele>338.8</ele>
      </trkpt>
      <trkpt lat="45.73308" lon="5.28312">
        <ele>347.8</ele>
      </trkpt>
      <trkpt lat="45.73328" lon="5.28465">
        <ele>345.6</ele>
      </trkpt>
      <trkpt lat="45.73358" lon="5.2853">
        <ele>349</ele>
      </trkpt>
      <trkpt lat="45.73363" lon="5.28604">
        <ele>340.8</ele>
      </trkpt>
      <trkpt lat="45.73413" lon="5.28724">
        <ele>343.1</ele>
      </trkpt>
      <trkpt lat="45.73501" lon="5.28853">
        <ele>347.8</ele>
      </trkpt>
      <trkpt lat="45.73543" lon="5.28937">
        <ele>348.6</ele>
      </trkpt>
      <trkpt lat="45.73595" lon="5.2901">
        <ele>350.8</ele>
      </trkpt>
      <trkpt lat="45.73593" lon="5.2907">
        <ele>348.1</ele>
      </trkpt>
      <trkpt lat="45.73582" lon="5.29156">
        <ele>351.8</ele>
      </trkpt>
      <trkpt lat="45.7358" lon="5.29232">
        <ele>359.7</ele>
      </trkpt>
      <trkpt lat="45.73525" lon="5.29292">
        <ele>361.9</ele>
      </trkpt>
      <trkpt lat="45.73466" lon="5.29343">
        <ele>363.8</ele>
      </trkpt>
      <trkpt lat="45.73394" lon="5.29355">
        <ele>360.1</ele>
      </trkpt>
      <trkpt lat="45.73325" lon="5.29367">
        <ele>359.6</ele>
      </trkpt>
      <trkpt lat="45.73295" lon="5.29407">
        <ele>365.1</ele>
      </trkpt>
      <trkpt lat="45.73327" lon="5.29438">
        <ele>369.1</ele>
      </trkpt>
      <trkpt lat="45.73385" lon="5.29539">
        <ele>380.5</ele>
      </trkpt>
      <trkpt lat="45.7338" lon="5.29628">
        <ele>383.1</ele>
      </trkpt>
      <trkpt lat="45.73343" lon="5.29772">
        <ele>380.3</ele>
      </trkpt>
      <trkpt lat="45.73277" lon="5.30007">
        <ele>372.1</ele>
      </trkpt>
      <trkpt lat="45.73194" lon="5.30285">
        <ele>371.4</ele>
      </trkpt>
      <trkpt lat="45.73114" lon="5.3051">
        <ele>369.7</ele>
      </trkpt>
      <trkpt lat="45.73118" lon="5.30631">
        <ele>371.9</ele>
      </trkpt>
      <trkpt lat="45.73118" lon="5.30793">
        <ele>368.2</ele>
      </trkpt>
      <trkpt lat="45.73136" lon="5.30857">
        <ele>364.2</ele>
      </trkpt>
      <trkpt lat="45.73209" lon="5.30893">
        <ele>360.6</ele>
      </trkpt>
      <trkpt lat="45.7329" lon="5.30939">
        <ele>354.9</ele>
      </trkpt>
      <trkpt lat="45.7334" lon="5.30999">
        <ele>347.6</ele>
      </trkpt>
      <trkpt lat="45.73417" lon="5.31101">
        <ele>349.2</ele>
      </trkpt>
      <trkpt lat="45.73475" lon="5.31193">
        <ele>351.9</ele>
      </trkpt>
      <trkpt lat="45.73467" lon="5.31298">
        <ele>351.1</ele>
      </trkpt>
      <trkpt lat="45.73453" lon="5.31421">
        <ele>354.6</ele>
      </trkpt>
      <trkpt lat="45.73441" lon="5.31525">
        <ele>357.3</ele>
      </trkpt>
      <trkpt lat="45.73437" lon="5.31617">
        <ele>356.2</ele>
      </trkpt>
      <trkpt lat="45.73526" lon="5.31679">
        <ele>354.9</ele>
      </trkpt>
      <trkpt lat="45.73572" lon="5.31723">
        <ele>351.7</ele>
      </trkpt>
      <trkpt lat="45.73653" lon="5.31775">
        <ele>347.8</ele>
      </trkpt>
      <trkpt lat="45.73736" lon="5.31824">
        <ele>347.9</ele>
      </trkpt>
      <trkpt lat="45.73763" lon="5.31886">
        <ele>342.7</ele>
      </trkpt>
      <trkpt lat="45.73791" lon="5.31926">
        <ele>337.2</ele>
      </trkpt>
      <trkpt lat="45.73869" lon="5.31939">
        <ele>333.9</ele>
      </trkpt>
      <trkpt lat="45.7393" lon="5.31965">
        <ele>331.7</ele>
      </trkpt>
      <trkpt lat="45.73957" lon="5.32039">
        <ele>328.1</ele>
      </trkpt>
      <trkpt lat="45.74008" lon="5.32058">
        <ele>328.7</ele>
      </trkpt>
      <trkpt lat="45.74087" lon="5.32116">
        <ele>325.8</ele>
      </trkpt>
      <trkpt lat="45.74185" lon="5.32198">
        <ele>317.7</ele>
      </trkpt>
      <trkpt lat="45.743" lon="5.32281">
        <ele>314.6</ele>
      </trkpt>
      <trkpt lat="45.74296" lon="5.32353">
        <ele>312.7</ele>
      </trkpt>
      <trkpt lat="45.74276" lon="5.32432">
        <ele>307.1</ele>
      </trkpt>
      <trkpt lat="45.7432" lon="5.32466">
        <ele>303.3</ele>
      </trkpt>
      <trkpt lat="45.74439" lon="5.32495">
        <ele>298.8</ele>
      </trkpt>
      <trkpt lat="45.74609" lon="5.32536">
        <ele>289.3</ele>
      </trkpt>
      <trkpt lat="45.74784" lon="5.32574">
        <ele>289.1</ele>
      </trkpt>
      <trkpt lat="45.74824" lon="5.32684">
        <ele>286.9</ele>
      </trkpt>
      <trkpt lat="45.74887" lon="5.32811">
        <ele>287.5</ele>
      </trkpt>
      <trkpt lat="45.74945" lon="5.32881">
        <ele>288.1</ele>
      </trkpt>
      <trkpt lat="45.74954" lon="5.32974">
        <ele>288.1</ele>
      </trkpt>
      <trkpt lat="45.74989" lon="5.33001">
        <ele>287.3</ele>
      </trkpt>
      <trkpt lat="45.74989" lon="5.33062">
        <ele>287.8</ele>
      </trkpt>
      <trkpt lat="45.74997" lon="5.33126">
        <ele>287.5</ele>
      </trkpt>
      <trkpt lat="45.75004" lon="5.33196">
        <ele>287</ele>
      </trkpt>
      <trkpt lat="45.74997" lon="5.33272">
        <ele>287.3</ele>
      </trkpt>
      <trkpt lat="45.7497" lon="5.33382">
        <ele>288.9</ele>
      </trkpt>
      <trkpt lat="45.74951" lon="5.33461">
        <ele>289.4</ele>
      </trkpt>
      <trkpt lat="45.74937" lon="5.3352">
        <ele>289.6</ele>
      </trkpt>
      <trkpt lat="45.74926" lon="5.33599">
        <ele>289.9</ele>
      </trkpt>
      <trkpt lat="45.74913" lon="5.33671">
        <ele>290</ele>
      </trkpt>
      <trkpt lat="45.749" lon="5.33731">
        <ele>289.7</ele>
      </trkpt>
      <trkpt lat="45.74869" lon="5.33802">
        <ele>290.3</ele>
      </trkpt>
      <trkpt lat="45.74844" lon="5.3383">
        <ele>290.8</ele>
      </trkpt>
      <trkpt lat="45.74816" lon="5.33869">
        <ele>291</ele>
      </trkpt>
      <trkpt lat="45.74797" lon="5.33919">
        <ele>291.3</ele>
      </trkpt>
      <trkpt lat="45.74774" lon="5.3395">
        <ele>291.7</ele>
      </trkpt>
      <trkpt lat="45.74753" lon="5.33999">
        <ele>291</ele>
      </trkpt>
      <trkpt lat="45.7474" lon="5.34059">
        <ele>291.8</ele>
      </trkpt>
      <trkpt lat="45.74714" lon="5.34105">
        <ele>291.9</ele>
      </trkpt>
      <trkpt lat="45.74686" lon="5.34155">
        <ele>291.4</ele>
      </trkpt>
      <trkpt lat="45.74647" lon="5.34216">
        <ele>292.2</ele>
      </trkpt>
      <trkpt lat="45.74626" lon="5.34256">
        <ele>293</ele>
      </trkpt>
      <trkpt lat="45.74601" lon="5.34284">
        <ele>293.7</ele>
      </trkpt>
      <trkpt lat="45.74569" lon="5.3431">
        <ele>294.3</ele>
      </trkpt>
      <trkpt lat="45.74557" lon="5.34348">
        <ele>295</ele>
      </trkpt>
      <trkpt lat="45.74547" lon="5.34392">
        <ele>296.5</ele>
      </trkpt>
      <trkpt lat="45.74539" lon="5.34442">
        <ele>297.5</ele>
      </trkpt>
      <trkpt lat="45.74526" lon="5.34499">
        <ele>297.8</ele>
      </trkpt>
      <trkpt lat="45.74513" lon="5.34558">
        <ele>299.9</ele>
      </trkpt>
      <trkpt lat="45.74496" lon="5.34615">
        <ele>302.7</ele>
      </trkpt>
      <trkpt lat="45.74477" lon="5.34671">
        <ele>307.7</ele>
      </trkpt>
      <trkpt lat="45.7445" lon="5.34729">
        <ele>316.2</ele>
      </trkpt>
      <trkpt lat="45.74468" lon="5.34759">
        <ele>316.7</ele>
      </trkpt>
      <trkpt lat="45.74464" lon="5.34797">
        <ele>320.4</ele>
      </trkpt>
      <trkpt lat="45.74451" lon="5.3487">
        <ele>326.9</ele>
      </trkpt>
      <trkpt lat="45.74435" lon="5.34917">
        <ele>329.9</ele>
      </trkpt>
      <trkpt lat="45.74402" lon="5.34962">
        <ele>337.5</ele>
      </trkpt>
      <trkpt lat="45.74383" lon="5.35009">
        <ele>343.1</ele>
      </trkpt>
      <trkpt lat="45.74359" lon="5.35087">
        <ele>347.9</ele>
      </trkpt>
      <trkpt lat="45.74347" lon="5.35112">
        <ele>347.4</ele>
      </trkpt>
      <trkpt lat="45.74325" lon="5.352">
        <ele>347</ele>
      </trkpt>
      <trkpt lat="45.74309" lon="5.35275">
        <ele>347.6</ele>
      </trkpt>
      <trkpt lat="45.74314" lon="5.35336">
        <ele>348.1</ele>
      </trkpt>
      <trkpt lat="45.7431" lon="5.35396">
        <ele>345.3</ele>
      </trkpt>
      <trkpt lat="45.74293" lon="5.35475">
        <ele>343.4</ele>
      </trkpt>
      <trkpt lat="45.74268" lon="5.35502">
        <ele>342.7</ele>
      </trkpt>
      <trkpt lat="45.74244" lon="5.35539">
        <ele>341.2</ele>
      </trkpt>
      <trkpt lat="45.74227" lon="5.35611">
        <ele>337.5</ele>
      </trkpt>
      <trkpt lat="45.74206" lon="5.35654">
        <ele>335.7</ele>
      </trkpt>
      <trkpt lat="45.74182" lon="5.35713">
        <ele>335.3</ele>
      </trkpt>
      <trkpt lat="45.74162" lon="5.35792">
        <ele>334.9</ele>
      </trkpt>
      <trkpt lat="45.74133" lon="5.3586">
        <ele>334.8</ele>
      </trkpt>
      <trkpt lat="45.74104" lon="5.35944">
        <ele>334.9</ele>
      </trkpt>
      <trkpt lat="45.74087" lon="5.35994">
        <ele>335.1</ele>
      </trkpt>
      <trkpt lat="45.74051" lon="5.36106">
        <ele>340</ele>
      </trkpt>
      <trkpt lat="45.74029" lon="5.36159">
        <ele>344.3</ele>
      </trkpt>
      <trkpt lat="45.74001" lon="5.36228">
        <ele>349.8</ele>
      </trkpt>
      <trkpt lat="45.73974" lon="5.36328">
        <ele>352.2</ele>
      </trkpt>
      <trkpt lat="45.73945" lon="5.36406">
        <ele>350.5</ele>
      </trkpt>
      <trkpt lat="45.73907" lon="5.36496">
        <ele>344.6</ele>
      </trkpt>
      <trkpt lat="45.73893" lon="5.36527">
        <ele>343.3</ele>
      </trkpt>
      <trkpt lat="45.73874" lon="5.36631">
        <ele>341.5</ele>
      </trkpt>
      <trkpt lat="45.73873" lon="5.36694">
        <ele>341</ele>
      </trkpt>
      <trkpt lat="45.73849" lon="5.36756">
        <ele>339.3</ele>
      </trkpt>
      <trkpt lat="45.7383" lon="5.36794">
        <ele>338.4</ele>
      </trkpt>
      <trkpt lat="45.73796" lon="5.36817">
        <ele>337.3</ele>
      </trkpt>
      <trkpt lat="45.73755" lon="5.36859">
        <ele>336.5</ele>
      </trkpt>
      <trkpt lat="45.7373" lon="5.36883">
        <ele>336.2</ele>
      </trkpt>
      <trkpt lat="45.73693" lon="5.36904">
        <ele>335.1</ele>
      </trkpt>
      <trkpt lat="45.73648" lon="5.36942">
        <ele>334.3</ele>
      </trkpt>
      <trkpt lat="45.73621" lon="5.36963">
        <ele>333.9</ele>
      </trkpt>
      <trkpt lat="45.73591" lon="5.36977">
        <ele>333</ele>
      </trkpt>
      <trkpt lat="45.73564" lon="5.36998">
        <ele>331.6</ele>
      </trkpt>
      <trkpt lat="45.73534" lon="5.37028">
        <ele>330.3</ele>
      </trkpt>
      <trkpt lat="45.73509" lon="5.37056">
        <ele>328.6</ele>
      </trkpt>
      <trkpt lat="45.73488" lon="5.37102">
        <ele>328</ele>
      </trkpt>
      <trkpt lat="45.73467" lon="5.37133">
        <ele>327.4</ele>
      </trkpt>
      <trkpt lat="45.73441" lon="5.37166">
        <ele>325.5</ele>
      </trkpt>
      <trkpt lat="45.73423" lon="5.372">
        <ele>324.5</ele>
      </trkpt>
      <trkpt lat="45.73402" lon="5.37231">
        <ele>323.8</ele>
      </trkpt>
      <trkpt lat="45.73377" lon="5.37258">
        <ele>323.5</ele>
      </trkpt>
      <trkpt lat="45.73352" lon="5.37279">
        <ele>323.9</ele>
      </trkpt>
      <trkpt lat="45.73304" lon="5.37311">
        <ele>324.9</ele>
      </trkpt>
      <trkpt lat="45.73283" lon="5.37335">
        <ele>326.2</ele>
      </trkpt>
      <trkpt lat="45.73263" lon="5.37357">
        <ele>327.6</ele>
      </trkpt>
      <trkpt lat="45.7324" lon="5.3739">
        <ele>330.8</ele>
      </trkpt>
      <trkpt lat="45.73227" lon="5.37447">
        <ele>335.6</ele>
      </trkpt>
      <trkpt lat="45.73206" lon="5.37481">
        <ele>337</ele>
      </trkpt>
      <trkpt lat="45.73183" lon="5.37517">
        <ele>337.7</ele>
      </trkpt>
      <trkpt lat="45.73162" lon="5.37554">
        <ele>337.4</ele>
      </trkpt>
      <trkpt lat="45.73137" lon="5.37578">
        <ele>337.1</ele>
      </trkpt>
      <trkpt lat="45.73104" lon="5.37615">
        <ele>337.5</ele>
      </trkpt>
      <trkpt lat="45.73081" lon="5.37652">
        <ele>338.4</ele>
      </trkpt>
      <trkpt lat="45.73056" lon="5.37682">
        <ele>339.9</ele>
      </trkpt>
      <trkpt lat="45.73035" lon="5.37706">
        <ele>341.3</ele>
      </trkpt>
      <trkpt lat="45.73003" lon="5.37759">
        <ele>344.4</ele>
      </trkpt>
      <trkpt lat="45.72982" lon="5.37789">
        <ele>346.6</ele>
      </trkpt>
      <trkpt lat="45.72952" lon="5.37819">
        <ele>348.3</ele>
      </trkpt>
      <trkpt lat="45.72919" lon="5.37878">
        <ele>349.5</ele>
      </trkpt>
      <trkpt lat="45.72892" lon="5.37914">
        <ele>349.1</ele>
      </trkpt>
      <trkpt lat="45.72868" lon="5.37964">
        <ele>346.7</ele>
      </trkpt>
      <trkpt lat="45.72856" lon="5.38005">
        <ele>344.2</ele>
      </trkpt>
      <trkpt lat="45.72843" lon="5.38058">
        <ele>337.1</ele>
      </trkpt>
      <trkpt lat="45.72815" lon="5.38114">
        <ele>328.7</ele>
      </trkpt>
      <trkpt lat="45.72796" lon="5.3815">
        <ele>322</ele>
        <time>2023-04-23T10:42:09Z</time>
      </trkpt>
      <trkpt lat="45.72824" lon="5.38181">
        <ele>321</ele>
        <time>2023-04-23T10:42:16Z</time>
      </trkpt>
      <trkpt lat="45.7295" lon="5.38224">
        <ele>319</ele>
        <time>2023-04-23T10:42:39Z</time>
      </trkpt>
      <trkpt lat="45.73027" lon="5.38269">
        <ele>317</ele>
        <time>2023-04-23T10:42:54Z</time>
      </trkpt>
      <trkpt lat="45.7309" lon="5.38302">
        <ele>317</ele>
        <time>2023-04-23T10:43:06Z</time>
      </trkpt>
      <trkpt lat="45.73134" lon="5.38335">
        <ele>314</ele>
        <time>2023-04-23T10:43:14Z</time>
      </trkpt>
      <trkpt lat="45.7319" lon="5.38387">
        <ele>313.7</ele>
      </trkpt>
      <trkpt lat="45.73238" lon="5.38422">
        <ele>313</ele>
        <time>2023-04-23T10:43:36Z</time>
      </trkpt>
      <trkpt lat="45.73333" lon="5.38506">
        <ele>314</ele>
        <time>2023-04-23T10:43:56Z</time>
      </trkpt>
      <trkpt lat="45.73385" lon="5.38575">
        <ele>313</ele>
        <time>2023-04-23T10:44:08Z</time>
      </trkpt>
      <trkpt lat="45.7342" lon="5.38635">
        <ele>311</ele>
        <time>2023-04-23T10:44:18Z</time>
      </trkpt>
      <trkpt lat="45.73458" lon="5.38688">
        <ele>310</ele>
        <time>2023-04-23T10:44:27Z</time>
      </trkpt>
      <trkpt lat="45.73492" lon="5.38718">
        <ele>310</ele>
        <time>2023-04-23T10:44:35Z</time>
      </trkpt>
      <trkpt lat="45.73501" lon="5.38794">
        <ele>309</ele>
        <time>2023-04-23T10:44:44Z</time>
      </trkpt>
      <trkpt lat="45.73506" lon="5.38949">
        <ele>304</ele>
        <time>2023-04-23T10:45:03Z</time>
      </trkpt>
      <trkpt lat="45.73521" lon="5.39014">
        <ele>300</ele>
        <time>2023-04-23T10:45:12Z</time>
      </trkpt>
      <trkpt lat="45.73556" lon="5.39021">
        <ele>297</ele>
        <time>2023-04-23T10:45:18Z</time>
      </trkpt>
      <trkpt lat="45.7359" lon="5.38995">
        <ele>297</ele>
        <time>2023-04-23T10:45:25Z</time>
      </trkpt>
      <trkpt lat="45.73622" lon="5.38994">
        <ele>295</ele>
        <time>2023-04-23T10:45:31Z</time>
      </trkpt>
      <trkpt lat="45.73646" lon="5.39019">
        <ele>291</ele>
        <time>2023-04-23T10:45:36Z</time>
      </trkpt>
      <trkpt lat="45.73676" lon="5.3903">
        <ele>289</ele>
        <time>2023-04-23T10:45:42Z</time>
      </trkpt>
      <trkpt lat="45.73709" lon="5.39049">
        <ele>287</ele>
        <time>2023-04-23T10:45:48Z</time>
      </trkpt>
      <trkpt lat="45.73751" lon="5.39082">
        <ele>285</ele>
        <time>2023-04-23T10:45:56Z</time>
      </trkpt>
      <trkpt lat="45.73794" lon="5.3916">
        <ele>286.6</ele>
      </trkpt>
      <trkpt lat="45.7385" lon="5.39245">
        <ele>285</ele>
        <time>2023-04-23T10:46:23Z</time>
      </trkpt>
      <trkpt lat="45.73862" lon="5.39309">
        <ele>284</ele>
        <time>2023-04-23T10:46:31Z</time>
      </trkpt>
      <trkpt lat="45.73863" lon="5.39342">
        <ele>284</ele>
        <time>2023-04-23T10:46:36Z</time>
      </trkpt>
      <trkpt lat="45.73891" lon="5.39422">
        <ele>282</ele>
        <time>2023-04-23T10:46:47Z</time>
      </trkpt>
      <trkpt lat="45.73901" lon="5.39463">
        <ele>281</ele>
        <time>2023-04-23T10:46:52Z</time>
      </trkpt>
      <trkpt lat="45.73929" lon="5.39511">
        <ele>281</ele>
        <time>2023-04-23T10:47:00Z</time>
      </trkpt>
      <trkpt lat="45.7398" lon="5.39553">
        <ele>282</ele>
        <time>2023-04-23T10:47:10Z</time>
      </trkpt>
      <trkpt lat="45.74012" lon="5.39616">
        <ele>282</ele>
        <time>2023-04-23T10:47:20Z</time>
      </trkpt>
      <trkpt lat="45.74053" lon="5.39639">
        <ele>282</ele>
        <time>2023-04-23T10:47:28Z</time>
      </trkpt>
      <trkpt lat="45.74148" lon="5.397">
        <ele>278</ele>
        <time>2023-04-23T10:47:46Z</time>
      </trkpt>
      <trkpt lat="45.74187" lon="5.39763">
        <ele>276</ele>
        <time>2023-04-23T10:47:57Z</time>
      </trkpt>
      <trkpt lat="45.74219" lon="5.39823">
        <ele>275</ele>
        <time>2023-04-23T10:48:06Z</time>
      </trkpt>
      <trkpt lat="45.74271" lon="5.39892">
        <ele>273</ele>
        <time>2023-04-23T10:48:19Z</time>
      </trkpt>
      <trkpt lat="45.74288" lon="5.39923">
        <ele>272.9</ele>
      </trkpt>
      <trkpt lat="45.74333" lon="5.39951">
        <ele>272.2</ele>
      </trkpt>
      <trkpt lat="45.74355" lon="5.39988">
        <ele>271</ele>
        <time>2023-04-23T10:48:38Z</time>
      </trkpt>
      <trkpt lat="45.74384" lon="5.40027">
        <ele>271.7</ele>
      </trkpt>
      <trkpt lat="45.74431" lon="5.40073">
        <ele>271.2</ele>
      </trkpt>
      <trkpt lat="45.74476" lon="5.40094">
        <ele>271</ele>
        <time>2023-04-23T10:49:03Z</time>
      </trkpt>
      <trkpt lat="45.74531" lon="5.40146">
        <ele>270</ele>
        <time>2023-04-23T10:49:15Z</time>
      </trkpt>
      <trkpt lat="45.74579" lon="5.40185">
        <ele>269</ele>
        <time>2023-04-23T10:49:25Z</time>
      </trkpt>
      <trkpt lat="45.74637" lon="5.40218">
        <ele>269</ele>
        <time>2023-04-23T10:49:36Z</time>
      </trkpt>
      <trkpt lat="45.74688" lon="5.40257">
        <ele>269</ele>
        <time>2023-04-23T10:49:46Z</time>
      </trkpt>
      <trkpt lat="45.74764" lon="5.40294">
        <ele>269</ele>
        <time>2023-04-23T10:50:00Z</time>
      </trkpt>
      <trkpt lat="45.74808" lon="5.40297">
        <ele>268</ele>
        <time>2023-04-23T10:50:08Z</time>
      </trkpt>
      <trkpt lat="45.74859" lon="5.40332">
        <ele>268</ele>
        <time>2023-04-23T10:50:18Z</time>
      </trkpt>
      <trkpt lat="45.7492" lon="5.40352">
        <ele>267</ele>
        <time>2023-04-23T10:50:29Z</time>
      </trkpt>
      <trkpt lat="45.74949" lon="5.40354">
        <ele>268</ele>
        <time>2023-04-23T10:50:35Z</time>
      </trkpt>
      <trkpt lat="45.74988" lon="5.40403">
        <ele>269</ele>
        <time>2023-04-23T10:50:44Z</time>
      </trkpt>
      <trkpt lat="45.75019" lon="5.40393">
        <ele>268</ele>
        <time>2023-04-23T10:50:49Z</time>
      </trkpt>
      <trkpt lat="45.7506" lon="5.4039">
        <ele>267</ele>
        <time>2023-04-23T10:50:57Z</time>
      </trkpt>
      <trkpt lat="45.75093" lon="5.40439">
        <ele>267</ele>
        <time>2023-04-23T10:51:05Z</time>
      </trkpt>
      <trkpt lat="45.75145" lon="5.40461">
        <ele>267</ele>
        <time>2023-04-23T10:51:15Z</time>
      </trkpt>
      <trkpt lat="45.75254" lon="5.40527">
        <ele>266</ele>
        <time>2023-04-23T10:51:36Z</time>
      </trkpt>
      <trkpt lat="45.7529" lon="5.40532">
        <ele>266</ele>
        <time>2023-04-23T10:51:42Z</time>
      </trkpt>
      <trkpt lat="45.75347" lon="5.40569">
        <ele>266</ele>
      </trkpt>
      <trkpt lat="45.75411" lon="5.40587">
        <ele>266</ele>
        <time>2023-04-23T10:52:05Z</time>
      </trkpt>
      <trkpt lat="45.75462" lon="5.40629">
        <ele>266</ele>
        <time>2023-04-23T10:52:15Z</time>
      </trkpt>
      <trkpt lat="45.75574" lon="5.40712">
        <ele>266</ele>
        <time>2023-04-23T10:52:38Z</time>
      </trkpt>
      <trkpt lat="45.75632" lon="5.40743">
        <ele>267</ele>
        <time>2023-04-23T10:52:49Z</time>
      </trkpt>
      <trkpt lat="45.7567" lon="5.40795">
        <ele>268</ele>
        <time>2023-04-23T10:52:58Z</time>
      </trkpt>
      <trkpt lat="45.75701" lon="5.40855">
        <ele>270</ele>
        <time>2023-04-23T10:53:07Z</time>
      </trkpt>
      <trkpt lat="45.75745" lon="5.40913">
        <ele>275</ele>
        <time>2023-04-23T10:53:18Z</time>
      </trkpt>
      <trkpt lat="45.75777" lon="5.40963">
        <ele>277</ele>
        <time>2023-04-23T10:53:26Z</time>
      </trkpt>
      <trkpt lat="45.75825" lon="5.41022">
        <ele>278</ele>
        <time>2023-04-23T10:53:38Z</time>
      </trkpt>
      <trkpt lat="45.75893" lon="5.41092">
        <ele>274</ele>
        <time>2023-04-23T10:53:53Z</time>
      </trkpt>
      <trkpt lat="45.7594" lon="5.41119">
        <ele>274</ele>
        <time>2023-04-23T10:54:02Z</time>
      </trkpt>
      <trkpt lat="45.75992" lon="5.41251">
        <ele>273</ele>
        <time>2023-04-23T10:54:20Z</time>
      </trkpt>
      <trkpt lat="45.76034" lon="5.41327">
        <ele>271</ele>
        <time>2023-04-23T10:54:32Z</time>
      </trkpt>
      <trkpt lat="45.7606" lon="5.41386">
        <ele>269</ele>
        <time>2023-04-23T10:54:41Z</time>
      </trkpt>
      <trkpt lat="45.76126" lon="5.41422">
        <ele>269</ele>
        <time>2023-04-23T10:54:54Z</time>
      </trkpt>
      <trkpt lat="45.76226" lon="5.41498">
        <ele>264</ele>
        <time>2023-04-23T10:55:14Z</time>
      </trkpt>
      <trkpt lat="45.76264" lon="5.41541">
        <ele>262</ele>
        <time>2023-04-23T10:55:22Z</time>
      </trkpt>
      <trkpt lat="45.76293" lon="5.41603">
        <ele>259</ele>
        <time>2023-04-23T10:55:32Z</time>
      </trkpt>
      <trkpt lat="45.76334" lon="5.41659">
        <ele>257</ele>
        <time>2023-04-23T10:55:42Z</time>
      </trkpt>
      <trkpt lat="45.76378" lon="5.41705">
        <ele>257</ele>
        <time>2023-04-23T10:55:52Z</time>
      </trkpt>
      <trkpt lat="45.7641" lon="5.41744">
        <ele>257</ele>
        <time>2023-04-23T10:55:59Z</time>
      </trkpt>
      <trkpt lat="45.7646" lon="5.41785">
        <ele>254</ele>
        <time>2023-04-23T10:56:09Z</time>
      </trkpt>
      <trkpt lat="45.76509" lon="5.41796">
        <ele>252</ele>
        <time>2023-04-23T10:56:18Z</time>
      </trkpt>
      <trkpt lat="45.76572" lon="5.41823">
        <ele>247</ele>
        <time>2023-04-23T10:56:30Z</time>
      </trkpt>
      <trkpt lat="45.76617" lon="5.41812">
        <ele>247</ele>
        <time>2023-04-23T10:56:38Z</time>
      </trkpt>
      <trkpt lat="45.76699" lon="5.41804">
        <ele>243.4</ele>
      </trkpt>
      <trkpt lat="45.76765" lon="5.41823">
        <ele>243</ele>
        <time>2023-04-23T10:57:04Z</time>
      </trkpt>
      <trkpt lat="45.76835" lon="5.41852">
        <ele>240</ele>
        <time>2023-04-23T10:57:17Z</time>
      </trkpt>
      <trkpt lat="45.76882" lon="5.4188">
        <ele>240</ele>
        <time>2023-04-23T10:57:26Z</time>
      </trkpt>
      <trkpt lat="45.76911" lon="5.41908">
        <ele>240</ele>
        <time>2023-04-23T10:57:32Z</time>
      </trkpt>
      <trkpt lat="45.76974" lon="5.41959">
        <ele>242</ele>
        <time>2023-04-23T10:57:45Z</time>
      </trkpt>
      <trkpt lat="45.7702" lon="5.42004">
        <ele>240</ele>
        <time>2023-04-23T10:57:55Z</time>
      </trkpt>
      <trkpt lat="45.77085" lon="5.42076">
        <ele>236.9</ele>
      </trkpt>
      <trkpt lat="45.77139" lon="5.42102">
        <ele>235</ele>
        <time>2023-04-23T10:58:20Z</time>
      </trkpt>
      <trkpt lat="45.77187" lon="5.42148">
        <ele>234</ele>
        <time>2023-04-23T10:58:30Z</time>
      </trkpt>
      <trkpt lat="45.77226" lon="5.42145">
        <ele>235</ele>
        <time>2023-04-23T10:58:37Z</time>
      </trkpt>
      <trkpt lat="45.77288" lon="5.42233">
        <ele>233</ele>
        <time>2023-04-23T10:58:52Z</time>
      </trkpt>
      <trkpt lat="45.77335" lon="5.42319">
        <ele>230</ele>
        <time>2023-04-23T10:59:06Z</time>
      </trkpt>
      <trkpt lat="45.7737" lon="5.42413">
        <ele>228</ele>
        <time>2023-04-23T10:59:19Z</time>
      </trkpt>
      <trkpt lat="45.77385" lon="5.42512">
        <ele>226</ele>
        <time>2023-04-23T10:59:32Z</time>
      </trkpt>
      <trkpt lat="45.774" lon="5.4259">
        <ele>225</ele>
        <time>2023-04-23T10:59:42Z</time>
      </trkpt>
      <trkpt lat="45.77408" lon="5.427">
        <ele>224</ele>
        <time>2023-04-23T10:59:56Z</time>
      </trkpt>
      <trkpt lat="45.7742" lon="5.42796">
        <ele>226</ele>
        <time>2023-04-23T11:00:08Z</time>
      </trkpt>
      <trkpt lat="45.77434" lon="5.42867">
        <ele>226</ele>
        <time>2023-04-23T11:00:17Z</time>
      </trkpt>
      <trkpt lat="45.77466" lon="5.42971">
        <ele>224</ele>
        <time>2023-04-23T11:00:31Z</time>
      </trkpt>
      <trkpt lat="45.77503" lon="5.43057">
        <ele>224</ele>
        <time>2023-04-23T11:00:43Z</time>
      </trkpt>
      <trkpt lat="45.77535" lon="5.43154">
        <ele>224</ele>
      </trkpt>
      <trkpt lat="45.77551" lon="5.43232">
        <ele>226</ele>
        <time>2023-04-23T11:01:07Z</time>
      </trkpt>
      <trkpt lat="45.77584" lon="5.43459">
        <ele>222</ele>
        <time>2023-04-23T11:01:36Z</time>
      </trkpt>
      <trkpt lat="45.77591" lon="5.43534">
        <ele>221</ele>
        <time>2023-04-23T11:01:45Z</time>
      </trkpt>
      <trkpt lat="45.7762" lon="5.43634">
        <ele>221</ele>
        <time>2023-04-23T11:01:58Z</time>
      </trkpt>
      <trkpt lat="45.7765" lon="5.43717">
        <ele>222</ele>
        <time>2023-04-23T11:02:10Z</time>
      </trkpt>
      <trkpt lat="45.77682" lon="5.43846">
        <ele>223</ele>
        <time>2023-04-23T11:02:27Z</time>
      </trkpt>
      <trkpt lat="45.77733" lon="5.4394">
        <ele>222</ele>
        <time>2023-04-23T11:02:42Z</time>
      </trkpt>
      <trkpt lat="45.77796" lon="5.43996">
        <ele>222</ele>
        <time>2023-04-23T11:02:55Z</time>
      </trkpt>
      <trkpt lat="45.77839" lon="5.4405">
        <ele>221</ele>
        <time>2023-04-23T11:03:05Z</time>
      </trkpt>
      <trkpt lat="45.77888" lon="5.44083">
        <ele>222</ele>
        <time>2023-04-23T11:03:15Z</time>
      </trkpt>
      <trkpt lat="45.77966" lon="5.44142">
        <ele>221</ele>
        <time>2023-04-23T11:03:30Z</time>
      </trkpt>
      <trkpt lat="45.78013" lon="5.44168">
        <ele>222</ele>
        <time>2023-04-23T11:03:39Z</time>
      </trkpt>
      <trkpt lat="45.78057" lon="5.44201">
        <ele>223</ele>
        <time>2023-04-23T11:03:48Z</time>
      </trkpt>
      <trkpt lat="45.78045" lon="5.44307">
        <ele>222</ele>
        <time>2023-04-23T11:04:02Z</time>
      </trkpt>
      <trkpt lat="45.78016" lon="5.44423">
        <ele>223</ele>
        <time>2023-04-23T11:04:17Z</time>
      </trkpt>
      <trkpt lat="45.77996" lon="5.44518">
        <ele>222</ele>
        <time>2023-04-23T11:04:29Z</time>
      </trkpt>
      <trkpt lat="45.77986" lon="5.44589">
        <ele>221</ele>
        <time>2023-04-23T11:04:38Z</time>
      </trkpt>
      <trkpt lat="45.78039" lon="5.44739">
        <ele>218</ele>
        <time>2023-04-23T11:04:59Z</time>
      </trkpt>
      <trkpt lat="45.78073" lon="5.44845">
        <ele>217</ele>
        <time>2023-04-23T11:05:14Z</time>
      </trkpt>
      <trkpt lat="45.78123" lon="5.44927">
        <ele>217</ele>
        <time>2023-04-23T11:05:27Z</time>
      </trkpt>
      <trkpt lat="45.78137" lon="5.44985">
        <ele>216</ele>
        <time>2023-04-23T11:05:35Z</time>
      </trkpt>
      <trkpt lat="45.78205" lon="5.4503">
        <ele>212</ele>
        <time>2023-04-23T11:05:48Z</time>
      </trkpt>
      <trkpt lat="45.78269" lon="5.45085">
        <ele>209</ele>
        <time>2023-04-23T11:06:01Z</time>
      </trkpt>
      <trkpt lat="45.784" lon="5.45183">
        <ele>203</ele>
        <time>2023-04-23T11:06:28Z</time>
      </trkpt>
      <trkpt lat="45.78461" lon="5.4522">
        <ele>206</ele>
        <time>2023-04-23T11:06:39Z</time>
      </trkpt>
      <trkpt lat="45.78518" lon="5.45266">
        <ele>207</ele>
        <time>2023-04-23T11:06:51Z</time>
      </trkpt>
      <trkpt lat="45.78505" lon="5.45328">
        <ele>208.1</ele>
        <time>2023-05-03T14:29:08Z</time>
      </trkpt>
      <trkpt lat="45.78466" lon="5.45434">
        <ele>207.6</ele>
        <time>2026-09-08T08:03:25Z</time>
      </trkpt>
      <trkpt lat="45.78441" lon="5.45512">
        <ele>207.2</ele>
        <time>2546-06-26T17:25:48Z</time>
      </trkpt>
      <trkpt lat="45.78404" lon="5.45599">
        <ele>206.2</ele>
      </trkpt>
      <trkpt lat="45.78378" lon="5.45662">
        <ele>205.7</ele>
      </trkpt>
      <trkpt lat="45.78347" lon="5.45722">
        <ele>205</ele>
      </trkpt>
      <trkpt lat="45.7831" lon="5.45794">
        <ele>205.4</ele>
        <time>2023-04-23T08:50:28Z</time>
      </trkpt>
      <trkpt lat="45.78253" lon="5.45754">
        <ele>205</ele>
        <time>2023-04-15T01:50:47Z</time>
      </trkpt>
      <trkpt lat="45.78278" lon="5.45656">
        <ele>204.1</ele>
        <time>2173-06-04T17:38:22Z</time>
      </trkpt>
      <trkpt lat="45.783" lon="5.45559">
        <ele>206.4</ele>
      </trkpt>
      <trkpt lat="45.7833" lon="5.45471">
        <ele>208.3</ele>
      </trkpt>
      <trkpt lat="45.7834" lon="5.45408">
        <ele>207.2</ele>
      </trkpt>
      <trkpt lat="45.78357" lon="5.45347">
        <ele>208.2</ele>
      </trkpt>
      <trkpt lat="45.78371" lon="5.45281">
        <ele>207.8</ele>
      </trkpt>
      <trkpt lat="45.78418" lon="5.4515">
        <ele>205.8</ele>
      </trkpt>
      <trkpt lat="45.78468" lon="5.4515">
        <ele>205.8</ele>
      </trkpt>
      <trkpt lat="45.7852" lon="5.45042">
        <ele>205.1</ele>
        <time>2021-06-08T07:20:50Z</time>
      </trkpt>
      <trkpt lat="45.78545" lon="5.45004">
        <ele>205</ele>
        <time>2918-07-10T06:13:18Z</time>
      </trkpt>
      <trkpt lat="45.78598" lon="5.44917">
        <ele>205.4</ele>
        <time>3897-12-17T11:00:27Z</time>
      </trkpt>
      <trkpt lat="45.78643" lon="5.44851">
        <ele>205.9</ele>
        <time>5119-08-19T21:32:48Z</time>
      </trkpt>
      <trkpt lat="45.78685" lon="5.44784">
        <ele>205.3</ele>
        <time>6648-04-24T02:19:44Z</time>
      </trkpt>
      <trkpt lat="45.78715" lon="5.44731">
        <ele>204.1</ele>
        <time>8659-09-29T07:36:24Z</time>
      </trkpt>
      <trkpt lat="45.78752" lon="5.44679">
        <ele>203.2</ele>
      </trkpt>
      <trkpt lat="45.7878" lon="5.44643">
        <ele>203.7</ele>
      </trkpt>
      <trkpt lat="45.78838" lon="5.44607">
        <ele>205.2</ele>
      </trkpt>
      <trkpt lat="45.78877" lon="5.44587">
        <ele>206.6</ele>
      </trkpt>
      <trkpt lat="45.78925" lon="5.44538">
        <ele>206.1</ele>
      </trkpt>
      <trkpt lat="45.78983" lon="5.44521">
        <ele>204.2</ele>
      </trkpt>
      <trkpt lat="45.79027" lon="5.44484">
        <ele>204</ele>
      </trkpt>
      <trkpt lat="45.7908" lon="5.44455">
        <ele>204.9</ele>
      </trkpt>
      <trkpt lat="45.79131" lon="5.44408">
        <ele>205.5</ele>
      </trkpt>
      <trkpt lat="45.79191" lon="5.44355">
        <ele>205.3</ele>
      </trkpt>
      <trkpt lat="45.79241" lon="5.44306">
        <ele>204.4</ele>
      </trkpt>
      <trkpt lat="45.79286" lon="5.44246">
        <ele>203</ele>
      </trkpt>
      <trkpt lat="45.79345" lon="5.44198">
        <ele>202.6</ele>
      </trkpt>
      <trkpt lat="45.79436" lon="5.44097">
        <ele>203.8</ele>
      </trkpt>
      <trkpt lat="45.79475" lon="5.44047">
        <ele>202.7</ele>
      </trkpt>
      <trkpt lat="45.79517" lon="5.44019">
        <ele>202.7</ele>
      </trkpt>
      <trkpt lat="45.79583" lon="5.43961">
        <ele>204</ele>
        <time>2023-04-23T11:07:46Z</time>
      </trkpt>
      <trkpt lat="45.79651" lon="5.43893">
        <ele>204.6</ele>
        <time>2023-03-01T00:20:48Z</time>
      </trkpt>
      <trkpt lat="45.79703" lon="5.43832">
        <ele>203.6</ele>
        <time>2008-06-26T11:30:14Z</time>
      </trkpt>
      <trkpt lat="45.79762" lon="5.43761">
        <ele>202.7</ele>
      </trkpt>
      <trkpt lat="45.79816" lon="5.43687">
        <ele>205.2</ele>
      </trkpt>
      <trkpt lat="45.79869" lon="5.43629">
        <ele>205.7</ele>
      </trkpt>
      <trkpt lat="45.79905" lon="5.43574">
        <ele>205.3</ele>
      </trkpt>
      <trkpt lat="45.79934" lon="5.43538">
        <ele>204.4</ele>
      </trkpt>
      <trkpt lat="45.79992" lon="5.43497">
        <ele>203.8</ele>
      </trkpt>
      <trkpt lat="45.80033" lon="5.43472">
        <ele>203.8</ele>
        <time>2023-04-24T02:18:47Z</time>
      </trkpt>
      <trkpt lat="45.80108" lon="5.43427">
        <ele>203.8</ele>
        <time>2016-12-10T05:45:25Z</time>
      </trkpt>
      <trkpt lat="45.80191" lon="5.43367">
        <ele>204.9</ele>
      </trkpt>
      <trkpt lat="45.80263" lon="5.43337">
        <ele>207.2</ele>
      </trkpt>
      <trkpt lat="45.80318" lon="5.43283">
        <ele>207.5</ele>
      </trkpt>
      <trkpt lat="45.80359" lon="5.4325">
        <ele>207.1</ele>
      </trkpt>
      <trkpt lat="45.80393" lon="5.43205">
        <ele>205</ele>
      </trkpt>
      <trkpt lat="45.80433" lon="5.43151">
        <ele>203.5</ele>
      </trkpt>
      <trkpt lat="45.80463" lon="5.43103">
        <ele>203.4</ele>
      </trkpt>
      <trkpt lat="45.80508" lon="5.43006">
        <ele>202</ele>
      </trkpt>
      <trkpt lat="45.80548" lon="5.42915">
        <ele>200.3</ele>
        <time>2023-05-25T05:09:57Z</time>
      </trkpt>
      <trkpt lat="45.80576" lon="5.42844">
        <ele>200</ele>
      </trkpt>
      <trkpt lat="45.80619" lon="5.4278">
        <ele>201.9</ele>
      </trkpt>
      <trkpt lat="45.80668" lon="5.42713">
        <ele>204.3</ele>
      </trkpt>
      <trkpt lat="45.80704" lon="5.42668">
        <ele>205.1</ele>
      </trkpt>
      <trkpt lat="45.80752" lon="5.42619">
        <ele>204.5</ele>
      </trkpt>
      <trkpt lat="45.80802" lon="5.4257">
        <ele>202.1</ele>
      </trkpt>
      <trkpt lat="45.80872" lon="5.42524">
        <ele>201.3</ele>
      </trkpt>
      <trkpt lat="45.80916" lon="5.42492">
        <ele>201.9</ele>
      </trkpt>
      <trkpt lat="45.80967" lon="5.42466">
        <ele>201.7</ele>
      </trkpt>
      <trkpt lat="45.81018" lon="5.42453">
        <ele>202.2</ele>
      </trkpt>
      <trkpt lat="45.81075" lon="5.42442">
        <ele>203</ele>
      </trkpt>
      <trkpt lat="45.81124" lon="5.42427">
        <ele>203.3</ele>
      </trkpt>
      <trkpt lat="45.81184" lon="5.42446">
        <ele>203.1</ele>
        <time>2032-02-02T04:55:16Z</time>
      </trkpt>
      <trkpt lat="45.81246" lon="5.42479">
        <ele>204.2</ele>
      </trkpt>
      <trkpt lat="45.81322" lon="5.42518">
        <ele>204.5</ele>
      </trkpt>
      <trkpt lat="45.81384" lon="5.42561">
        <ele>205.3</ele>
      </trkpt>
      <trkpt lat="45.81436" lon="5.42598">
        <ele>206.5</ele>
      </trkpt>
      <trkpt lat="45.81504" lon="5.42657">
        <ele>205</ele>
      </trkpt>
      <trkpt lat="45.81546" lon="5.42681">
        <ele>204.3</ele>
      </trkpt>
      <trkpt lat="45.81587" lon="5.42716">
        <ele>204.3</ele>
      </trkpt>
      <trkpt lat="45.81647" lon="5.42788">
        <ele>201.4</ele>
      </trkpt>
      <trkpt lat="45.81687" lon="5.4284">
        <ele>202</ele>
      </trkpt>
      <trkpt lat="45.81733" lon="5.42892">
        <ele>201.8</ele>
      </trkpt>
      <trkpt lat="45.81791" lon="5.42967">
        <ele>201.9</ele>
        <time>2437-08-06T06:14:51Z</time>
      </trkpt>
      <trkpt lat="45.81867" lon="5.43061">
        <ele>203.7</ele>
      </trkpt>
      <trkpt lat="45.8192" lon="5.43125">
        <ele>203.4</ele>
      </trkpt>
      <trkpt lat="45.81992" lon="5.43206">
        <ele>202.5</ele>
      </trkpt>
      <trkpt lat="45.82036" lon="5.43258">
        <ele>200.5</ele>
      </trkpt>
      <trkpt lat="45.82107" lon="5.43324">
        <ele>199</ele>
      </trkpt>
      <trkpt lat="45.82162" lon="5.43394">
        <ele>199.8</ele>
      </trkpt>
      <trkpt lat="45.82212" lon="5.43459">
        <ele>199.7</ele>
      </trkpt>
      <trkpt lat="45.82277" lon="5.43537">
        <ele>200.2</ele>
      </trkpt>
      <trkpt lat="45.82325" lon="5.43581">
        <ele>199.4</ele>
      </trkpt>
      <trkpt lat="45.82373" lon="5.43641">
        <ele>199.4</ele>
      </trkpt>
      <trkpt lat="45.82429" lon="5.43696">
        <ele>199.7</ele>
      </trkpt>
      <trkpt lat="45.82514" lon="5.43751">
        <ele>200.7</ele>
        <time>2023-04-23T10:56:53Z</time>
      </trkpt>
      <trkpt lat="45.82548" lon="5.43757">
        <ele>200</ele>
      </trkpt>
      <trkpt lat="45.82605" lon="5.43773">
        <ele>199.5</ele>
        <time>4689-07-20T14:47:25Z</time>
      </trkpt>
      <trkpt lat="45.82676" lon="5.43787">
        <ele>200.8</ele>
      </trkpt>
      <trkpt lat="45.82736" lon="5.43778">
        <ele>200.6</ele>
        <time>2857-05-13T09:17:12Z</time>
      </trkpt>
      <trkpt lat="45.82804" lon="5.43777">
        <ele>199.8</ele>
        <time>2018-08-01T12:54:19Z</time>
      </trkpt>
      <trkpt lat="45.82871" lon="5.43795">
        <ele>200.6</ele>
        <time>2023-05-05T12:20:30Z</time>
      </trkpt>
      <trkpt lat="45.82952" lon="5.43798">
        <ele>201.1</ele>
        <time>2023-04-23T08:28:07Z</time>
      </trkpt>
      <trkpt lat="45.8301" lon="5.43781">
        <ele>200.8</ele>
        <time>2023-07-24T04:16:15Z</time>
      </trkpt>
      <trkpt lat="45.83073" lon="5.4375">
        <ele>200.2</ele>
        <time>2042-04-27T14:52:32Z</time>
      </trkpt>
      <trkpt lat="45.83136" lon="5.43721">
        <ele>200.8</ele>
        <time>3586-02-18T05:33:07Z</time>
      </trkpt>
      <trkpt lat="45.83182" lon="5.43682">
        <ele>200.1</ele>
      </trkpt>
      <trkpt lat="45.8324" lon="5.43638">
        <ele>200.3</ele>
      </trkpt>
      <trkpt lat="45.83304" lon="5.4358">
        <ele>200.4</ele>
      </trkpt>
      <trkpt lat="45.83361" lon="5.43531">
        <ele>201.1</ele>
      </trkpt>
      <trkpt lat="45.83398" lon="5.43498">
        <ele>201.2</ele>
      </trkpt>
      <trkpt lat="45.83444" lon="5.43466">
        <ele>200.5</ele>
      </trkpt>
      <trkpt lat="45.83491" lon="5.43415">
        <ele>200.8</ele>
      </trkpt>
      <trkpt lat="45.83524" lon="5.43377">
        <ele>201.7</ele>
      </trkpt>
      <trkpt lat="45.83565" lon="5.43337">
        <ele>203.3</ele>
      </trkpt>
      <trkpt lat="45.83621" lon="5.43278">
        <ele>207.4</ele>
        <time>2023-04-22T00:05:16Z</time>
      </trkpt>
      <trkpt lat="45.8361" lon="5.43236">
        <ele>207.1</ele>
        <time>2470-07-24T08:53:59Z</time>
      </trkpt>
      <trkpt lat="45.83642" lon="5.43178">
        <ele>210.1</ele>
        <time>2924-10-02T10:57:52Z</time>
      </trkpt>
      <trkpt lat="45.83684" lon="5.43101">
        <ele>211.8</ele>
        <time>3404-08-04T16:35:13Z</time>
      </trkpt>
      <trkpt lat="45.83716" lon="5.43021">
        <ele>212.2</ele>
        <time>3922-09-05T06:55:22Z</time>
      </trkpt>
      <trkpt lat="45.83754" lon="5.42954">
        <ele>213.5</ele>
        <time>4481-06-03T05:51:56Z</time>
      </trkpt>
      <trkpt lat="45.83765" lon="5.42875">
        <ele>212.5</ele>
        <time>5086-01-31T11:52:28Z</time>
      </trkpt>
      <trkpt lat="45.83793" lon="5.42788">
        <ele>213.6</ele>
        <time>5730-12-02T20:14:04Z</time>
      </trkpt>
      <trkpt lat="45.83868" lon="5.42473">
        <ele>212.9</ele>
        <time>6438-12-15T23:09:22Z</time>
      </trkpt>
      <trkpt lat="45.83883" lon="5.42407">
        <ele>212</ele>
        <time>7433-09-25T18:11:26Z</time>
      </trkpt>
      <trkpt lat="45.83924" lon="5.42245">
        <ele>210.1</ele>
        <time>8504-01-26T16:44:27Z</time>
      </trkpt>
      <trkpt lat="45.83971" lon="5.42117">
        <ele>208.5</ele>
        <time>9767-07-26T05:25:14Z</time>
      </trkpt>
      <trkpt lat="45.84003" lon="5.42032">
        <ele>206.1</ele>
      </trkpt>
      <trkpt lat="45.84044" lon="5.41987">
        <ele>204.9</ele>
      </trkpt>
      <trkpt lat="45.841" lon="5.41946">
        <ele>204.8</ele>
      </trkpt>
      <trkpt lat="45.8417" lon="5.41915">
        <ele>205</ele>
      </trkpt>
      <trkpt lat="45.84243" lon="5.41912">
        <ele>208</ele>
      </trkpt>
      <trkpt lat="45.84299" lon="5.4191">
        <ele>205.9</ele>
      </trkpt>
      <trkpt lat="45.84352" lon="5.41908">
        <ele>204.4</ele>
      </trkpt>
      <trkpt lat="45.84418" lon="5.41904">
        <ele>204.8</ele>
      </trkpt>
      <trkpt lat="45.84465" lon="5.41897">
        <ele>204.1</ele>
      </trkpt>
      <trkpt lat="45.84515" lon="5.41897">
        <ele>203.8</ele>
      </trkpt>
      <trkpt lat="45.84543" lon="5.41899">
        <ele>203.3</ele>
      </trkpt>
      <trkpt lat="45.84572" lon="5.41901">
        <ele>202.7</ele>
      </trkpt>
      <trkpt lat="45.84621" lon="5.41841">
        <ele>201.2</ele>
      </trkpt>
      <trkpt lat="45.84652" lon="5.41821">
        <ele>201.1</ele>
      </trkpt>
      <trkpt lat="45.84699" lon="5.41771">
        <ele>200.7</ele>
      </trkpt>
      <trkpt lat="45.84748" lon="5.41747">
        <ele>202.7</ele>
      </trkpt>
      <trkpt lat="45.84792" lon="5.41712">
        <ele>201.9</ele>
      </trkpt>
      <trkpt lat="45.84829" lon="5.41692">
        <ele>202.4</ele>
      </trkpt>
      <trkpt lat="45.84877" lon="5.41663">
        <ele>202.2</ele>
      </trkpt>
      <trkpt lat="45.84917" lon="5.4165">
        <ele>202</ele>
      </trkpt>
      <trkpt lat="45.84966" lon="5.41625">
        <ele>202.3</ele>
      </trkpt>
      <trkpt lat="45.85011" lon="5.41608">
        <ele>203.5</ele>
      </trkpt>
      <trkpt lat="45.85059" lon="5.41581">
        <ele>204.3</ele>
      </trkpt>
      <trkpt lat="45.85122" lon="5.41562">
        <ele>206.8</ele>
      </trkpt>
      <trkpt lat="45.8518" lon="5.41538">
        <ele>209.1</ele>
      </trkpt>
      <trkpt lat="45.8522" lon="5.41498">
        <ele>207.7</ele>
      </trkpt>
      <trkpt lat="45.85269" lon="5.41429">
        <ele>206.5</ele>
      </trkpt>
      <trkpt lat="45.85324" lon="5.41333">
        <ele>206.4</ele>
      </trkpt>
      <trkpt lat="45.85362" lon="5.41239">
        <ele>207.1</ele>
      </trkpt>
      <trkpt lat="45.85391" lon="5.41125">
        <ele>206.9</ele>
      </trkpt>
      <trkpt lat="45.85423" lon="5.40991">
        <ele>204.2</ele>
      </trkpt>
      <trkpt lat="45.85464" lon="5.40916">
        <ele>205</ele>
      </trkpt>
      <trkpt lat="45.85398" lon="5.40778">
        <ele>199.5</ele>
      </trkpt>
      <trkpt lat="45.85344" lon="5.40644">
        <ele>199.3</ele>
      </trkpt>
      <trkpt lat="45.85284" lon="5.40507">
        <ele>198.5</ele>
      </trkpt>
      <trkpt lat="45.85258" lon="5.40499">
        <ele>199</ele>
      </trkpt>
      <trkpt lat="45.85219" lon="5.40537">
        <ele>201.4</ele>
      </trkpt>
      <trkpt lat="45.85176" lon="5.40584">
        <ele>205.1</ele>
      </trkpt>
      <trkpt lat="45.85131" lon="5.40627">
        <ele>205.3</ele>
      </trkpt>
      <trkpt lat="45.8508" lon="5.40683">
        <ele>204.7</ele>
      </trkpt>
      <trkpt lat="45.85045" lon="5.40724">
        <ele>203.1</ele>
      </trkpt>
      <trkpt lat="45.85006" lon="5.40789">
        <ele>201.2</ele>
      </trkpt>
      <trkpt lat="45.84968" lon="5.40854">
        <ele>203.2</ele>
      </trkpt>
      <trkpt lat="45.84914" lon="5.40944">
        <ele>198.5</ele>
      </trkpt>
      <trkpt lat="45.8488" lon="5.41009">
        <ele>201.4</ele>
      </trkpt>
      <trkpt lat="45.84847" lon="5.41065">
        <ele>200.1</ele>
      </trkpt>
      <trkpt lat="45.84801" lon="5.41154">
        <ele>202</ele>
      </trkpt>
      <trkpt lat="45.84761" lon="5.41226">
        <ele>200.4</ele>
      </trkpt>
      <trkpt lat="45.84728" lon="5.41292">
        <ele>200.8</ele>
      </trkpt>
      <trkpt lat="45.84676" lon="5.41358">
        <ele>201.3</ele>
      </trkpt>
      <trkpt lat="45.84631" lon="5.41401">
        <ele>202.6</ele>
      </trkpt>
      <trkpt lat="45.84586" lon="5.4147">
        <ele>200.4</ele>
      </trkpt>
      <trkpt lat="45.84521" lon="5.41509">
        <ele>200.8</ele>
      </trkpt>
      <trkpt lat="45.84461" lon="5.4154">
        <ele>202.4</ele>
      </trkpt>
      <trkpt lat="45.844" lon="5.41562">
        <ele>202.1</ele>
      </trkpt>
      <trkpt lat="45.84327" lon="5.4158">
        <ele>199.8</ele>
      </trkpt>
      <trkpt lat="45.84269" lon="5.41596">
        <ele>203.2</ele>
      </trkpt>
      <trkpt lat="45.84201" lon="5.41607">
        <ele>205.4</ele>
      </trkpt>
      <trkpt lat="45.84148" lon="5.41614">
        <ele>205.6</ele>
      </trkpt>
      <trkpt lat="45.84064" lon="5.41624">
        <ele>204.3</ele>
      </trkpt>
      <trkpt lat="45.84017" lon="5.41627">
        <ele>204.2</ele>
      </trkpt>
      <trkpt lat="45.83937" lon="5.41652">
        <ele>206.1</ele>
      </trkpt>
      <trkpt lat="45.83893" lon="5.41734">
        <ele>201.5</ele>
      </trkpt>
      <trkpt lat="45.83847" lon="5.41838">
        <ele>199</ele>
      </trkpt>
      <trkpt lat="45.83817" lon="5.41932">
        <ele>199.6</ele>
      </trkpt>
      <trkpt lat="45.83778" lon="5.42017">
        <ele>200.1</ele>
      </trkpt>
      <trkpt lat="45.83744" lon="5.42124">
        <ele>199.1</ele>
      </trkpt>
      <trkpt lat="45.83709" lon="5.42206">
        <ele>199.5</ele>
      </trkpt>
      <trkpt lat="45.83681" lon="5.42286">
        <ele>199</ele>
      </trkpt>
      <trkpt lat="45.83655" lon="5.42357">
        <ele>199.1</ele>
      </trkpt>
      <trkpt lat="45.83628" lon="5.42452">
        <ele>198.7</ele>
      </trkpt>
      <trkpt lat="45.83591" lon="5.42544">
        <ele>199</ele>
      </trkpt>
      <trkpt lat="45.83543" lon="5.42628">
        <ele>199</ele>
      </trkpt>
      <trkpt lat="45.83493" lon="5.42704">
        <ele>199</ele>
      </trkpt>
      <trkpt lat="45.83449" lon="5.42773">
        <ele>199</ele>
      </trkpt>
      <trkpt lat="45.83395" lon="5.4285">
        <ele>199.2</ele>
      </trkpt>
      <trkpt lat="45.83314" lon="5.42929">
        <ele>198.8</ele>
      </trkpt>
      <trkpt lat="45.83251" lon="5.43012">
        <ele>199</ele>
      </trkpt>
      <trkpt lat="45.83186" lon="5.43093">
        <ele>199</ele>
      </trkpt>
      <trkpt lat="45.83108" lon="5.43175">
        <ele>199</ele>
      </trkpt>
      <trkpt lat="45.83031" lon="5.4325">
        <ele>199</ele>
      </trkpt>
      <trkpt lat="45.82961" lon="5.43293">
        <ele>199.2</ele>
      </trkpt>
      <trkpt lat="45.82873" lon="5.4335">
        <ele>199</ele>
      </trkpt>
      <trkpt lat="45.82785" lon="5.43377">
        <ele>199.3</ele>
      </trkpt>
      <trkpt lat="45.82693" lon="5.43399">
        <ele>199.2</ele>
      </trkpt>
      <trkpt lat="45.82641" lon="5.43357">
        <ele>199.7</ele>
      </trkpt>
      <trkpt lat="45.82607" lon="5.43268">
        <ele>199.8</ele>
      </trkpt>
      <trkpt lat="45.82597" lon="5.43171">
        <ele>200</ele>
      </trkpt>
      <trkpt lat="45.82601" lon="5.43047">
        <ele>199.9</ele>
      </trkpt>
      <trkpt lat="45.82593" lon="5.42946">
        <ele>199.9</ele>
      </trkpt>
      <trkpt lat="45.82593" lon="5.42839">
        <ele>200</ele>
      </trkpt>
      <trkpt lat="45.82593" lon="5.42762">
        <ele>200.1</ele>
      </trkpt>
      <trkpt lat="45.8259" lon="5.42676">
        <ele>199.3</ele>
      </trkpt>
      <trkpt lat="45.82589" lon="5.42601">
        <ele>201.5</ele>
      </trkpt>
      <trkpt lat="45.82565" lon="5.42526">
        <ele>202.5</ele>
      </trkpt>
      <trkpt lat="45.8257" lon="5.42452">
        <ele>204.5</ele>
      </trkpt>
      <trkpt lat="45.82614" lon="5.42432">
        <ele>205.4</ele>
      </trkpt>
      <trkpt lat="45.82638" lon="5.42379">
        <ele>205.4</ele>
      </trkpt>
      <trkpt lat="45.8264" lon="5.42302">
        <ele>205</ele>
      </trkpt>
      <trkpt lat="45.82625" lon="5.42234">
        <ele>204.5</ele>
      </trkpt>
      <trkpt lat="45.82578" lon="5.42175">
        <ele>204</ele>
      </trkpt>
      <trkpt lat="45.82582" lon="5.42086">
        <ele>204</ele>
      </trkpt>
      <trkpt lat="45.82552" lon="5.4198">
        <ele>204.4</ele>
      </trkpt>
      <trkpt lat="45.82558" lon="5.41899">
        <ele>206.1</ele>
      </trkpt>
      <trkpt lat="45.82563" lon="5.41845">
        <ele>207.3</ele>
      </trkpt>
      <trkpt lat="45.82571" lon="5.41786">
        <ele>207.7</ele>
      </trkpt>
      <trkpt lat="45.82538" lon="5.41742">
        <ele>207.2</ele>
      </trkpt>
      <trkpt lat="45.82446" lon="5.41669">
        <ele>206.7</ele>
      </trkpt>
      <trkpt lat="45.82426" lon="5.41594">
        <ele>208.2</ele>
      </trkpt>
      <trkpt lat="45.82419" lon="5.41436">
        <ele>218.8</ele>
      </trkpt>
      <trkpt lat="45.82406" lon="5.41338">
        <ele>221.8</ele>
      </trkpt>
      <trkpt lat="45.82378" lon="5.41224">
        <ele>220.9</ele>
      </trkpt>
      <trkpt lat="45.82335" lon="5.41125">
        <ele>220.5</ele>
      </trkpt>
      <trkpt lat="45.82291" lon="5.41007">
        <ele>220.5</ele>
      </trkpt>
      <trkpt lat="45.82256" lon="5.40909">
        <ele>218.2</ele>
      </trkpt>
      <trkpt lat="45.82218" lon="5.40801">
        <ele>218.2</ele>
      </trkpt>
      <trkpt lat="45.8221" lon="5.407">
        <ele>221</ele>
      </trkpt>
      <trkpt lat="45.8218" lon="5.40628">
        <ele>220.9</ele>
      </trkpt>
      <trkpt lat="45.8214" lon="5.40542">
        <ele>220</ele>
      </trkpt>
      <trkpt lat="45.82079" lon="5.40462">
        <ele>221</ele>
      </trkpt>
      <trkpt lat="45.82024" lon="5.40414">
        <ele>221</ele>
      </trkpt>
      <trkpt lat="45.81979" lon="5.40347">
        <ele>220.2</ele>
      </trkpt>
      <trkpt lat="45.81888" lon="5.4031">
        <ele>220.9</ele>
      </trkpt>
      <trkpt lat="45.81782" lon="5.40316">
        <ele>221.4</ele>
      </trkpt>
      <trkpt lat="45.81755" lon="5.40251">
        <ele>222.9</ele>
      </trkpt>
      <trkpt lat="45.81737" lon="5.4015">
        <ele>222.6</ele>
      </trkpt>
      <trkpt lat="45.81737" lon="5.40066">
        <ele>222.6</ele>
      </trkpt>
      <trkpt lat="45.81779" lon="5.40001">
        <ele>223.3</ele>
      </trkpt>
      <trkpt lat="45.81846" lon="5.39934">
        <ele>223.3</ele>
      </trkpt>
      <trkpt lat="45.81922" lon="5.39861">
        <ele>222.4</ele>
      </trkpt>
      <trkpt lat="45.81983" lon="5.39772">
        <ele>223.8</ele>
      </trkpt>
      <trkpt lat="45.82046" lon="5.39711">
        <ele>225.4</ele>
      </trkpt>
      <trkpt lat="45.82097" lon="5.39656">
        <ele>227.5</ele>
      </trkpt>
      <trkpt lat="45.82143" lon="5.396">
        <ele>231.5</ele>
      </trkpt>
      <trkpt lat="45.82197" lon="5.39526">
        <ele>236.2</ele>
      </trkpt>
      <trkpt lat="45.82239" lon="5.39467">
        <ele>241.5</ele>
      </trkpt>
      <trkpt lat="45.82274" lon="5.39421">
        <ele>246.8</ele>
      </trkpt>
      <trkpt lat="45.82302" lon="5.39394">
        <ele>247.7</ele>
      </trkpt>
      <trkpt lat="45.82347" lon="5.39374">
        <ele>248.7</ele>
      </trkpt>
      <trkpt lat="45.824" lon="5.39337">
        <ele>252.7</ele>
      </trkpt>
      <trkpt lat="45.82355" lon="5.39287">
        <ele>249.5</ele>
      </trkpt>
      <trkpt lat="45.82306" lon="5.3921">
        <ele>246.7</ele>
      </trkpt>
      <trkpt lat="45.82272" lon="5.39156">
        <ele>244.8</ele>
      </trkpt>
      <trkpt lat="45.82248" lon="5.39104">
        <ele>243.9</ele>
      </trkpt>
      <trkpt lat="45.82208" lon="5.39037">
        <ele>242.8</ele>
      </trkpt>
      <trkpt lat="45.8217" lon="5.38989">
        <ele>242.5</ele>
      </trkpt>
      <trkpt lat="45.82125" lon="5.38915">
        <ele>244.5</ele>
      </trkpt>
      <trkpt lat="45.82084" lon="5.38844">
        <ele>244.9</ele>
      </trkpt>
      <trkpt lat="45.82051" lon="5.38845">
        <ele>245.1</ele>
      </trkpt>
      <trkpt lat="45.82021" lon="5.38784">
        <ele>247.4</ele>
      </trkpt>
      <trkpt lat="45.81987" lon="5.38694">
        <ele>248.5</ele>
      </trkpt>
      <trkpt lat="45.81967" lon="5.38633">
        <ele>248.2</ele>
      </trkpt>
      <trkpt lat="45.81955" lon="5.38553">
        <ele>248.8</ele>
      </trkpt>
      <trkpt lat="45.81935" lon="5.38486">
        <ele>250.5</ele>
      </trkpt>
      <trkpt lat="45.81917" lon="5.3843">
        <ele>250.9</ele>
      </trkpt>
      <trkpt lat="45.81889" lon="5.38379">
        <ele>252</ele>
      </trkpt>
      <trkpt lat="45.81837" lon="5.38312">
        <ele>253.1</ele>
      </trkpt>
      <trkpt lat="45.81788" lon="5.38212">
        <ele>251.1</ele>
      </trkpt>
      <trkpt lat="45.81739" lon="5.38123">
        <ele>248.4</ele>
      </trkpt>
      <trkpt lat="45.81704" lon="5.38041">
        <ele>248.7</ele>
      </trkpt>
      <trkpt lat="45.81663" lon="5.37978">
        <ele>246.8</ele>
      </trkpt>
      <trkpt lat="45.81631" lon="5.37915">
        <ele>245.4</ele>
      </trkpt>
      <trkpt lat="45.81607" lon="5.37874">
        <ele>245.5</ele>
      </trkpt>
      <trkpt lat="45.81567" lon="5.37819">
        <ele>247</ele>
      </trkpt>
      <trkpt lat="45.81528" lon="5.37774">
        <ele>250.1</ele>
      </trkpt>
      <trkpt lat="45.81511" lon="5.37741">
        <ele>252</ele>
      </trkpt>
      <trkpt lat="45.81477" lon="5.37698">
        <ele>251.9</ele>
      </trkpt>
      <trkpt lat="45.81431" lon="5.37655">
        <ele>251.8</ele>
      </trkpt>
      <trkpt lat="45.81411" lon="5.37634">
        <ele>252</ele>
      </trkpt>
      <trkpt lat="45.81362" lon="5.37562">
        <ele>253.1</ele>
      </trkpt>
      <trkpt lat="45.81311" lon="5.37499">
        <ele>252.4</ele>
      </trkpt>
      <trkpt lat="45.81284" lon="5.37452">
        <ele>252</ele>
      </trkpt>
      <trkpt lat="45.81265" lon="5.37396">
        <ele>253.4</ele>
      </trkpt>
      <trkpt lat="45.81243" lon="5.37324">
        <ele>255.6</ele>
      </trkpt>
      <trkpt lat="45.81208" lon="5.37293">
        <ele>253.5</ele>
      </trkpt>
      <trkpt lat="45.81153" lon="5.37229">
        <ele>250.9</ele>
      </trkpt>
      <trkpt lat="45.81092" lon="5.37164">
        <ele>250.2</ele>
      </trkpt>
      <trkpt lat="45.81041" lon="5.37105">
        <ele>250.8</ele>
      </trkpt>
      <trkpt lat="45.81032" lon="5.37073">
        <ele>251.1</ele>
      </trkpt>
      <trkpt lat="45.81013" lon="5.37028">
        <ele>251.6</ele>
      </trkpt>
      <trkpt lat="45.80979" lon="5.37012">
        <ele>252.1</ele>
      </trkpt>
      <trkpt lat="45.80964" lon="5.37004">
        <ele>252.4</ele>
      </trkpt>
      <trkpt lat="45.80907" lon="5.36974">
        <ele>252.3</ele>
      </trkpt>
      <trkpt lat="45.80889" lon="5.3694">
        <ele>251.5</ele>
      </trkpt>
      <trkpt lat="45.80879" lon="5.36888">
        <ele>251</ele>
      </trkpt>
      <trkpt lat="45.80872" lon="5.36828">
        <ele>251</ele>
      </trkpt>
      <trkpt lat="45.80843" lon="5.36773">
        <ele>251.5</ele>
      </trkpt>
      <trkpt lat="45.80801" lon="5.36728">
        <ele>252.2</ele>
      </trkpt>
      <trkpt lat="45.80749" lon="5.36693">
        <ele>252</ele>
      </trkpt>
      <trkpt lat="45.80693" lon="5.36665">
        <ele>252.7</ele>
      </trkpt>
      <trkpt lat="45.80627" lon="5.36619">
        <ele>252.4</ele>
      </trkpt>
      <trkpt lat="45.80564" lon="5.36595">
        <ele>252.1</ele>
      </trkpt>
      <trkpt lat="45.80491" lon="5.3656">
        <ele>252.4</ele>
      </trkpt>
      <trkpt lat="45.80459" lon="5.36529">
        <ele>252.7</ele>
      </trkpt>
      <trkpt lat="45.80378" lon="5.36428">
        <ele>252.2</ele>
      </trkpt>
      <trkpt lat="45.80338" lon="5.36374">
        <ele>252</ele>
      </trkpt>
      <trkpt lat="45.80289" lon="5.36326">
        <ele>252.6</ele>
      </trkpt>
      <trkpt lat="45.80213" lon="5.36245">
        <ele>253.8</ele>
      </trkpt>
      <trkpt lat="45.80154" lon="5.36162">
        <ele>253.2</ele>
      </trkpt>
      <trkpt lat="45.80095" lon="5.3609">
        <ele>253.2</ele>
      </trkpt>
      <trkpt lat="45.80042" lon="5.3603">
        <ele>254</ele>
      </trkpt>
      <trkpt lat="45.79959" lon="5.35936">
        <ele>254.1</ele>
      </trkpt>
      <trkpt lat="45.79907" lon="5.35888">
        <ele>254.1</ele>
      </trkpt>
      <trkpt lat="45.79841" lon="5.35828">
        <ele>254.9</ele>
      </trkpt>
      <trkpt lat="45.79767" lon="5.35755">
        <ele>255.8</ele>
      </trkpt>
      <trkpt lat="45.79711" lon="5.35713">
        <ele>255</ele>
      </trkpt>
      <trkpt lat="45.79611" lon="5.35643">
        <ele>255.8</ele>
      </trkpt>
      <trkpt lat="45.79544" lon="5.35585">
        <ele>258.4</ele>
      </trkpt>
      <trkpt lat="45.79516" lon="5.35577">
        <ele>259</ele>
      </trkpt>
      <trkpt lat="45.79466" lon="5.35615">
        <ele>258.4</ele>
      </trkpt>
      <trkpt lat="45.7943" lon="5.35627">
        <ele>258.7</ele>
      </trkpt>
      <trkpt lat="45.79355" lon="5.3561">
        <ele>261.1</ele>
      </trkpt>
      <trkpt lat="45.79265" lon="5.35571">
        <ele>266.2</ele>
      </trkpt>
      <trkpt lat="45.79184" lon="5.35545">
        <ele>274.1</ele>
      </trkpt>
      <trkpt lat="45.7911" lon="5.35527">
        <ele>279.3</ele>
      </trkpt>
      <trkpt lat="45.79031" lon="5.35533">
        <ele>287.6</ele>
      </trkpt>
      <trkpt lat="45.78997" lon="5.35534">
        <ele>291.8</ele>
      </trkpt>
      <trkpt lat="45.7897" lon="5.35544">
        <ele>293.2</ele>
      </trkpt>
      <trkpt lat="45.78925" lon="5.35566">
        <ele>295.4</ele>
      </trkpt>
      <trkpt lat="45.7885" lon="5.35609">
        <ele>297.1</ele>
      </trkpt>
      <trkpt lat="45.78777" lon="5.35684">
        <ele>294.7</ele>
      </trkpt>
      <trkpt lat="45.78723" lon="5.35718">
        <ele>294</ele>
      </trkpt>
      <trkpt lat="45.78659" lon="5.35746">
        <ele>295.1</ele>
      </trkpt>
      <trkpt lat="45.78583" lon="5.35776">
        <ele>295.1</ele>
      </trkpt>
      <trkpt lat="45.78519" lon="5.35746">
        <ele>303.6</ele>
      </trkpt>
      <trkpt lat="45.78441" lon="5.35703">
        <ele>305.9</ele>
      </trkpt>
      <trkpt lat="45.78361" lon="5.35659">
        <ele>307.5</ele>
      </trkpt>
      <trkpt lat="45.78331" lon="5.35632">
        <ele>309.1</ele>
      </trkpt>
      <trkpt lat="45.78286" lon="5.35557">
        <ele>315.2</ele>
      </trkpt>
      <trkpt lat="45.78263" lon="5.35497">
        <ele>320.2</ele>
      </trkpt>
      <trkpt lat="45.78222" lon="5.35417">
        <ele>318</ele>
      </trkpt>
      <trkpt lat="45.78178" lon="5.35359">
        <ele>315.2</ele>
      </trkpt>
      <trkpt lat="45.78163" lon="5.35314">
        <ele>315.1</ele>
      </trkpt>
      <trkpt lat="45.78143" lon="5.35221">
        <ele>315.5</ele>
      </trkpt>
      <trkpt lat="45.78085" lon="5.35108">
        <ele>315.8</ele>
      </trkpt>
      <trkpt lat="45.78021" lon="5.35028">
        <ele>318.2</ele>
      </trkpt>
      <trkpt lat="45.7798" lon="5.34982">
        <ele>318.4</ele>
      </trkpt>
      <trkpt lat="45.77942" lon="5.34949">
        <ele>317.8</ele>
      </trkpt>
      <trkpt lat="45.779" lon="5.3492">
        <ele>317.1</ele>
      </trkpt>
      <trkpt lat="45.77838" lon="5.349">
        <ele>314.6</ele>
      </trkpt>
      <trkpt lat="45.7778" lon="5.34934">
        <ele>311.6</ele>
      </trkpt>
      <trkpt lat="45.77741" lon="5.34941">
        <ele>310.9</ele>
      </trkpt>
      <trkpt lat="45.77713" lon="5.34913">
        <ele>311.4</ele>
      </trkpt>
      <trkpt lat="45.77658" lon="5.3485">
        <ele>313.1</ele>
      </trkpt>
      <trkpt lat="45.77624" lon="5.34815">
        <ele>313.6</ele>
      </trkpt>
      <trkpt lat="45.77582" lon="5.3479">
        <ele>314.6</ele>
      </trkpt>
      <trkpt lat="45.77514" lon="5.34764">
        <ele>315.7</ele>
      </trkpt>
      <trkpt lat="45.77464" lon="5.34735">
        <ele>315.6</ele>
      </trkpt>
      <trkpt lat="45.77414" lon="5.34657">
        <ele>316.6</ele>
      </trkpt>
      <trkpt lat="45.77337" lon="5.34529">
        <ele>325.2</ele>
      </trkpt>
      <trkpt lat="45.77282" lon="5.34426">
        <ele>328.7</ele>
      </trkpt>
      <trkpt lat="45.77238" lon="5.34362">
        <ele>328.7</ele>
      </trkpt>
      <trkpt lat="45.77202" lon="5.34301">
        <ele>327.3</ele>
      </trkpt>
      <trkpt lat="45.77147" lon="5.34212">
        <ele>326.7</ele>
      </trkpt>
      <trkpt lat="45.77126" lon="5.34168">
        <ele>327</ele>
      </trkpt>
      <trkpt lat="45.77085" lon="5.34111">
        <ele>327.4</ele>
      </trkpt>
      <trkpt lat="45.77052" lon="5.34047">
        <ele>327.7</ele>
      </trkpt>
      <trkpt lat="45.77017" lon="5.33993">
        <ele>327.4</ele>
      </trkpt>
      <trkpt lat="45.76982" lon="5.33924">
        <ele>326.6</ele>
      </trkpt>
      <trkpt lat="45.76951" lon="5.33875">
        <ele>326.8</ele>
      </trkpt>
      <trkpt lat="45.76895" lon="5.33794">
        <ele>327.3</ele>
      </trkpt>
      <trkpt lat="45.76837" lon="5.33699">
        <ele>326.8</ele>
      </trkpt>
      <trkpt lat="45.76788" lon="5.33627">
        <ele>325.2</ele>
      </trkpt>
      <trkpt lat="45.76732" lon="5.33527">
        <ele>323.9</ele>
      </trkpt>
      <trkpt lat="45.76685" lon="5.33445">
        <ele>324.2</ele>
      </trkpt>
      <trkpt lat="45.76657" lon="5.33417">
        <ele>324.7</ele>
      </trkpt>
      <trkpt lat="45.76612" lon="5.33387">
        <ele>323.3</ele>
      </trkpt>
      <trkpt lat="45.76569" lon="5.33338">
        <ele>322.3</ele>
      </trkpt>
      <trkpt lat="45.7653" lon="5.33295">
        <ele>320.5</ele>
      </trkpt>
      <trkpt lat="45.76466" lon="5.33194">
        <ele>319</ele>
      </trkpt>
      <trkpt lat="45.76397" lon="5.33155">
        <ele>317.1</ele>
      </trkpt>
      <trkpt lat="45.76331" lon="5.33125">
        <ele>314.5</ele>
      </trkpt>
      <trkpt lat="45.76303" lon="5.33092">
        <ele>314.3</ele>
      </trkpt>
      <trkpt lat="45.7625" lon="5.33044">
        <ele>313.5</ele>
      </trkpt>
      <trkpt lat="45.76173" lon="5.32957">
        <ele>308.5</ele>
      </trkpt>
      <trkpt lat="45.76103" lon="5.32942">
        <ele>304.2</ele>
      </trkpt>
      <trkpt lat="45.7606" lon="5.32935">
        <ele>301.9</ele>
      </trkpt>
      <trkpt lat="45.75999" lon="5.32927">
        <ele>298.9</ele>
      </trkpt>
      <trkpt lat="45.75916" lon="5.32932">
        <ele>293.3</ele>
      </trkpt>
      <trkpt lat="45.7585" lon="5.32922">
        <ele>290.7</ele>
      </trkpt>
      <trkpt lat="45.75795" lon="5.32922">
        <ele>288.3</ele>
      </trkpt>
      <trkpt lat="45.75743" lon="5.32917">
        <ele>285.8</ele>
      </trkpt>
      <trkpt lat="45.75676" lon="5.32917">
        <ele>284.2</ele>
      </trkpt>
      <trkpt lat="45.75626" lon="5.32922">
        <ele>285</ele>
      </trkpt>
      <trkpt lat="45.75541" lon="5.32952">
        <ele>287.3</ele>
      </trkpt>
      <trkpt lat="45.75442" lon="5.32979">
        <ele>287.6</ele>
      </trkpt>
      <trkpt lat="45.75364" lon="5.33008">
        <ele>286.5</ele>
      </trkpt>
      <trkpt lat="45.75285" lon="5.33008">
        <ele>287.9</ele>
      </trkpt>
      <trkpt lat="45.7524" lon="5.32993">
        <ele>288.7</ele>
      </trkpt>
      <trkpt lat="45.75186" lon="5.32965">
        <ele>287.4</ele>
      </trkpt>
      <trkpt lat="45.75098" lon="5.32934">
        <ele>284.8</ele>
      </trkpt>
      <trkpt lat="45.7504" lon="5.32929">
        <ele>285.2</ele>
      </trkpt>
      <trkpt lat="45.75013" lon="5.32915">
        <ele>285.7</ele>
      </trkpt>
      <trkpt lat="45.74969" lon="5.32896">
        <ele>287.3</ele>
      </trkpt>
      <trkpt lat="45.74915" lon="5.32866">
        <ele>288.8</ele>
      </trkpt>
      <trkpt lat="45.74887" lon="5.32829">
        <ele>287.9</ele>
      </trkpt>
      <trkpt lat="45.74864" lon="5.32777">
        <ele>286.7</ele>
      </trkpt>
      <trkpt lat="45.74815" lon="5.32637">
        <ele>287.9</ele>
      </trkpt>
      <trkpt lat="45.74781" lon="5.32578">
        <ele>289</ele>
      </trkpt>
      <trkpt lat="45.7471" lon="5.32559">
        <ele>289.3</ele>
      </trkpt>
      <trkpt lat="45.74639" lon="5.32551">
        <ele>289.2</ele>
      </trkpt>
      <trkpt lat="45.74542" lon="5.3252">
        <ele>292.3</ele>
      </trkpt>
      <trkpt lat="45.74484" lon="5.32506">
        <ele>296.9</ele>
      </trkpt>
      <trkpt lat="45.74437" lon="5.32496">
        <ele>298.7</ele>
      </trkpt>
      <trkpt lat="45.74394" lon="5.32489">
        <ele>299.7</ele>
      </trkpt>
      <trkpt lat="45.74333" lon="5.32468">
        <ele>303.1</ele>
      </trkpt>
      <trkpt lat="45.74293" lon="5.32453">
        <ele>304.7</ele>
      </trkpt>
      <trkpt lat="45.74285" lon="5.32416">
        <ele>309.3</ele>
      </trkpt>
      <trkpt lat="45.74298" lon="5.32357">
        <ele>312.6</ele>
      </trkpt>
      <trkpt lat="45.74309" lon="5.32292">
        <ele>314.6</ele>
      </trkpt>
      <trkpt lat="45.74264" lon="5.32257">
        <ele>314.8</ele>
      </trkpt>
      <trkpt lat="45.74161" lon="5.32171">
        <ele>320.6</ele>
      </trkpt>
      <trkpt lat="45.74114" lon="5.32133">
        <ele>324.1</ele>
      </trkpt>
      <trkpt lat="45.74052" lon="5.3209">
        <ele>327.6</ele>
      </trkpt>
      <trkpt lat="45.74007" lon="5.32069">
        <ele>328</ele>
      </trkpt>
      <trkpt lat="45.73978" lon="5.32059">
        <ele>327.8</ele>
      </trkpt>
      <trkpt lat="45.73943" lon="5.31993">
        <ele>329.7</ele>
      </trkpt>
      <trkpt lat="45.73923" lon="5.31966">
        <ele>331.5</ele>
      </trkpt>
      <trkpt lat="45.73885" lon="5.31948">
        <ele>333</ele>
      </trkpt>
      <trkpt lat="45.73819" lon="5.31934">
        <ele>335</ele>
      </trkpt>
      <trkpt lat="45.73791" lon="5.31918">
        <ele>338</ele>
      </trkpt>
      <trkpt lat="45.73774" lon="5.31906">
        <ele>340.1</ele>
      </trkpt>
      <trkpt lat="45.73744" lon="5.31826">
        <ele>348.1</ele>
      </trkpt>
      <trkpt lat="45.73719" lon="5.31807">
        <ele>348</ele>
      </trkpt>
      <trkpt lat="45.73674" lon="5.31785">
        <ele>347.8</ele>
      </trkpt>
      <trkpt lat="45.73633" lon="5.31769">
        <ele>347.8</ele>
      </trkpt>
      <trkpt lat="45.73598" lon="5.3174">
        <ele>350.3</ele>
      </trkpt>
      <trkpt lat="45.73561" lon="5.31702">
        <ele>353.7</ele>
      </trkpt>
      <trkpt lat="45.7351" lon="5.31674">
        <ele>354.7</ele>
      </trkpt>
      <trkpt lat="45.73461" lon="5.31648">
        <ele>355.4</ele>
      </trkpt>
      <trkpt lat="45.7344" lon="5.31616">
        <ele>356.3</ele>
      </trkpt>
      <trkpt lat="45.73442" lon="5.31535">
        <ele>357.4</ele>
      </trkpt>
      <trkpt lat="45.73454" lon="5.31449">
        <ele>355.8</ele>
      </trkpt>
      <trkpt lat="45.73464" lon="5.31332">
        <ele>350.8</ele>
      </trkpt>
      <trkpt lat="45.73479" lon="5.31202">
        <ele>351.9</ele>
      </trkpt>
      <trkpt lat="45.7344" lon="5.31148">
        <ele>350.5</ele>
      </trkpt>
      <trkpt lat="45.73398" lon="5.31083">
        <ele>349</ele>
      </trkpt>
      <trkpt lat="45.73367" lon="5.31038">
        <ele>348.6</ele>
      </trkpt>
      <trkpt lat="45.73341" lon="5.31008">
        <ele>347.4</ele>
      </trkpt>
      <trkpt lat="45.733" lon="5.30943">
        <ele>354.7</ele>
      </trkpt>
      <trkpt lat="45.73241" lon="5.30909">
        <ele>357.6</ele>
      </trkpt>
      <trkpt lat="45.73186" lon="5.3089">
        <ele>360.8</ele>
      </trkpt>
      <trkpt lat="45.73149" lon="5.30865">
        <ele>363.7</ele>
      </trkpt>
      <trkpt lat="45.73125" lon="5.30833">
        <ele>367.1</ele>
      </trkpt>
      <trkpt lat="45.73127" lon="5.3079">
        <ele>369</ele>
      </trkpt>
      <trkpt lat="45.73116" lon="5.30652">
        <ele>371.6</ele>
      </trkpt>
      <trkpt lat="45.73112" lon="5.30543">
        <ele>370.4</ele>
      </trkpt>
      <trkpt lat="45.73121" lon="5.30496">
        <ele>369.7</ele>
      </trkpt>
      <trkpt lat="45.73158" lon="5.30387">
        <ele>369.8</ele>
      </trkpt>
      <trkpt lat="45.73207" lon="5.30234">
        <ele>370.3</ele>
      </trkpt>
      <trkpt lat="45.73243" lon="5.30128">
        <ele>372.5</ele>
      </trkpt>
      <trkpt lat="45.73261" lon="5.30064">
        <ele>373</ele>
      </trkpt>
      <trkpt lat="45.73285" lon="5.2999">
        <ele>372.8</ele>
      </trkpt>
      <trkpt lat="45.73314" lon="5.29907">
        <ele>378</ele>
      </trkpt>
      <trkpt lat="45.73343" lon="5.29787">
        <ele>380.3</ele>
      </trkpt>
      <trkpt lat="45.73377" lon="5.29635">
        <ele>383</ele>
      </trkpt>
      <trkpt lat="45.73395" lon="5.29545">
        <ele>382</ele>
      </trkpt>
      <trkpt lat="45.73374" lon="5.29508">
        <ele>377.8</ele>
      </trkpt>
      <trkpt lat="45.73336" lon="5.29456">
        <ele>370.5</ele>
      </trkpt>
      <trkpt lat="45.73302" lon="5.29414">
        <ele>366.3</ele>
      </trkpt>
      <trkpt lat="45.73299" lon="5.29392">
        <ele>363.1</ele>
      </trkpt>
      <trkpt lat="45.73327" lon="5.29373">
        <ele>360.5</ele>
      </trkpt>
      <trkpt lat="45.73361" lon="5.29357">
        <ele>359</ele>
      </trkpt>
      <trkpt lat="45.7341" lon="5.29358">
        <ele>361.2</ele>
      </trkpt>
      <trkpt lat="45.73445" lon="5.29357">
        <ele>363.9</ele>
      </trkpt>
      <trkpt lat="45.73487" lon="5.29333">
        <ele>364.4</ele>
      </trkpt>
      <trkpt lat="45.73518" lon="5.29297">
        <ele>362.1</ele>
      </trkpt>
      <trkpt lat="45.73549" lon="5.29263">
        <ele>360.2</ele>
      </trkpt>
      <trkpt lat="45.7359" lon="5.29233">
        <ele>360.1</ele>
      </trkpt>
      <trkpt lat="45.73596" lon="5.29203">
        <ele>357</ele>
      </trkpt>
      <trkpt lat="45.73589" lon="5.29166">
        <ele>353.2</ele>
      </trkpt>
      <trkpt lat="45.73581" lon="5.29103">
        <ele>347.4</ele>
      </trkpt>
      <trkpt lat="45.73597" lon="5.29063">
        <ele>349.2</ele>
      </trkpt>
      <trkpt lat="45.73605" lon="5.29018">
        <ele>352.5</ele>
      </trkpt>
      <trkpt lat="45.73592" lon="5.28988">
        <ele>352.1</ele>
      </trkpt>
      <trkpt lat="45.73569" lon="5.2896">
        <ele>351.1</ele>
      </trkpt>
      <trkpt lat="45.73542" lon="5.28937">
        <ele>348.7</ele>
      </trkpt>
      <trkpt lat="45.73516" lon="5.28898">
        <ele>347.5</ele>
      </trkpt>
      <trkpt lat="45.73499" lon="5.2887">
        <ele>346.2</ele>
      </trkpt>
      <trkpt lat="45.73471" lon="5.28825">
        <ele>343.9</ele>
      </trkpt>
      <trkpt lat="45.73444" lon="5.28789">
        <ele>341.9</ele>
      </trkpt>
      <trkpt lat="45.73433" lon="5.28757">
        <ele>343.1</ele>
      </trkpt>
      <trkpt lat="45.73407" lon="5.28698">
        <ele>344.6</ele>
      </trkpt>
      <trkpt lat="45.73371" lon="5.28616">
        <ele>342.4</ele>
      </trkpt>
      <trkpt lat="45.73367" lon="5.28561">
        <ele>347.9</ele>
      </trkpt>
      <trkpt lat="45.73356" lon="5.28514">
        <ele>350.8</ele>
      </trkpt>
      <trkpt lat="45.73336" lon="5.28475">
        <ele>347.5</ele>
      </trkpt>
      <trkpt lat="45.73324" lon="5.28437">
        <ele>347.6</ele>
      </trkpt>
      <trkpt lat="45.73324" lon="5.28375">
        <ele>353.4</ele>
      </trkpt>
      <trkpt lat="45.73308" lon="5.2831">
        <ele>347.9</ele>
      </trkpt>
      <trkpt lat="45.73297" lon="5.2824">
        <ele>343.3</ele>
      </trkpt>
      <trkpt lat="45.73285" lon="5.28174">
        <ele>340</ele>
      </trkpt>
      <trkpt lat="45.73275" lon="5.28126">
        <ele>337.1</ele>
      </trkpt>
      <trkpt lat="45.73246" lon="5.28059">
        <ele>327.6</ele>
      </trkpt>
      <trkpt lat="45.73222" lon="5.27979">
        <ele>322.3</ele>
      </trkpt>
      <trkpt lat="45.73211" lon="5.27876">
        <ele>322.6</ele>
      </trkpt>
      <trkpt lat="45.73207" lon="5.27805">
        <ele>324.1</ele>
      </trkpt>
      <trkpt lat="45.73208" lon="5.27741">
        <ele>327.9</ele>
      </trkpt>
      <trkpt lat="45.73197" lon="5.27687">
        <ele>326.6</ele>
      </trkpt>
      <trkpt lat="45.73196" lon="5.2762">
        <ele>328.7</ele>
      </trkpt>
      <trkpt lat="45.73181" lon="5.27558">
        <ele>322.4</ele>
      </trkpt>
      <trkpt lat="45.73174" lon="5.27505">
        <ele>318.7</ele>
      </trkpt>
      <trkpt lat="45.73159" lon="5.27449">
        <ele>312.8</ele>
      </trkpt>
      <trkpt lat="45.73147" lon="5.274">
        <ele>307.9</ele>
      </trkpt>
      <trkpt lat="45.73129" lon="5.27341">
        <ele>301.3</ele>
      </trkpt>
      <trkpt lat="45.73122" lon="5.27306">
        <ele>298.4</ele>
      </trkpt>
      <trkpt lat="45.73115" lon="5.27247">
        <ele>294.5</ele>
      </trkpt>
      <trkpt lat="45.73118" lon="5.27217">
        <ele>294.5</ele>
      </trkpt>
      <trkpt lat="45.73122" lon="5.27166">
        <ele>294.8</ele>
      </trkpt>
      <trkpt lat="45.73139" lon="5.27136">
        <ele>301.3</ele>
      </trkpt>
      <trkpt lat="45.73135" lon="5.271">
        <ele>298.8</ele>
      </trkpt>
      <trkpt lat="45.73117" lon="5.27064">
        <ele>292</ele>
      </trkpt>
      <trkpt lat="45.7311" lon="5.27008">
        <ele>292.6</ele>
      </trkpt>
      <trkpt lat="45.73106" lon="5.26968">
        <ele>293.8</ele>
      </trkpt>
      <trkpt lat="45.73099" lon="5.26905">
        <ele>295.6</ele>
      </trkpt>
      <trkpt lat="45.7308" lon="5.26861">
        <ele>289.2</ele>
      </trkpt>
      <trkpt lat="45.73069" lon="5.26813">
        <ele>284.6</ele>
      </trkpt>
      <trkpt lat="45.73056" lon="5.26766">
        <ele>277.2</ele>
      </trkpt>
      <trkpt lat="45.7305" lon="5.26708">
        <ele>268.4</ele>
      </trkpt>
      <trkpt lat="45.73044" lon="5.26667">
        <ele>261.6</ele>
      </trkpt>
      <trkpt lat="45.73043" lon="5.26604">
        <ele>253.8</ele>
      </trkpt>
      <trkpt lat="45.73035" lon="5.26554">
        <ele>249.7</ele>
      </trkpt>
      <trkpt lat="45.73022" lon="5.26478">
        <ele>248.9</ele>
      </trkpt>
      <trkpt lat="45.73012" lon="5.26435">
        <ele>250.9</ele>
      </trkpt>
      <trkpt lat="45.73007" lon="5.26376">
        <ele>246.7</ele>
      </trkpt>
      <trkpt lat="45.73022" lon="5.26348">
        <ele>244</ele>
      </trkpt>
      <trkpt lat="45.73051" lon="5.26311">
        <ele>242.1</ele>
      </trkpt>
      <trkpt lat="45.7307" lon="5.26277">
        <ele>242</ele>
      </trkpt>
      <trkpt lat="45.73099" lon="5.26209">
        <ele>239.4</ele>
      </trkpt>
      <trkpt lat="45.73126" lon="5.26147">
        <ele>232.2</ele>
      </trkpt>
      <trkpt lat="45.73137" lon="5.26101">
        <ele>228</ele>
      </trkpt>
      <trkpt lat="45.73148" lon="5.26022">
        <ele>226.7</ele>
      </trkpt>
      <trkpt lat="45.73166" lon="5.25957">
        <ele>226.9</ele>
      </trkpt>
      <trkpt lat="45.73182" lon="5.259">
        <ele>229.3</ele>
      </trkpt>
      <trkpt lat="45.73201" lon="5.25851">
        <ele>232.9</ele>
      </trkpt>
      <trkpt lat="45.73219" lon="5.25799">
        <ele>234.9</ele>
      </trkpt>
      <trkpt lat="45.73188" lon="5.25753">
        <ele>227.1</ele>
      </trkpt>
      <trkpt lat="45.7316" lon="5.25718">
        <ele>221.5</ele>
      </trkpt>
      <trkpt lat="45.73132" lon="5.25694">
        <ele>219.6</ele>
      </trkpt>
      <trkpt lat="45.73096" lon="5.25667">
        <ele>217.4</ele>
      </trkpt>
      <trkpt lat="45.73067" lon="5.25639">
        <ele>216.8</ele>
      </trkpt>
      <trkpt lat="45.73035" lon="5.25639">
        <ele>217.8</ele>
      </trkpt>
      <trkpt lat="45.73005" lon="5.25623">
        <ele>218.3</ele>
      </trkpt>
      <trkpt lat="45.72989" lon="5.25608">
        <ele>218.1</ele>
      </trkpt>
      <trkpt lat="45.72973" lon="5.25565">
        <ele>216.7</ele>
      </trkpt>
      <trkpt lat="45.72965" lon="5.25485">
        <ele>214.5</ele>
      </trkpt>
      <trkpt lat="45.72945" lon="5.25472">
        <ele>214.1</ele>
      </trkpt>
      <trkpt lat="45.72883" lon="5.25459">
        <ele>215.1</ele>
      </trkpt>
      <trkpt lat="45.7282" lon="5.25473">
        <ele>219.2</ele>
      </trkpt>
      <trkpt lat="45.7276" lon="5.25473">
        <ele>221.3</ele>
      </trkpt>
      <trkpt lat="45.72687" lon="5.25469">
        <ele>222.8</ele>
      </trkpt>
      <trkpt lat="45.72653" lon="5.25498">
        <ele>223.7</ele>
      </trkpt>
      <trkpt lat="45.72604" lon="5.25539">
        <ele>222.5</ele>
      </trkpt>
      <trkpt lat="45.72564" lon="5.25561">
        <ele>221.9</ele>
      </trkpt>
      <trkpt lat="45.72554" lon="5.25524">
        <ele>223.3</ele>
      </trkpt>
      <trkpt lat="45.725" lon="5.2544">
        <ele>227</ele>
      </trkpt>
      <trkpt lat="45.7246" lon="5.25399">
        <ele>226.3</ele>
      </trkpt>
      <trkpt lat="45.72401" lon="5.25358">
        <ele>224.7</ele>
      </trkpt>
      <trkpt lat="45.72409" lon="5.25294">
        <ele>223.8</ele>
      </trkpt>
      <trkpt lat="45.72414" lon="5.25196">
        <ele>223.9</ele>
      </trkpt>
      <trkpt lat="45.72421" lon="5.25098">
        <ele>225.6</ele>
      </trkpt>
      <trkpt lat="45.72427" lon="5.25047">
        <ele>226.7</ele>
      </trkpt>
      <trkpt lat="45.72436" lon="5.2498">
        <ele>228.5</ele>
      </trkpt>
      <trkpt lat="45.72439" lon="5.24918">
        <ele>228.7</ele>
      </trkpt>
      <trkpt lat="45.72458" lon="5.24833">
        <ele>222.4</ele>
      </trkpt>
      <trkpt lat="45.72478" lon="5.24741">
        <ele>217.4</ele>
      </trkpt>
      <trkpt lat="45.72504" lon="5.24629">
        <ele>216.3</ele>
      </trkpt>
      <trkpt lat="45.72496" lon="5.24559">
        <ele>216.8</ele>
      </trkpt>
      <trkpt lat="45.72487" lon="5.24482">
        <ele>220</ele>
      </trkpt>
      <trkpt lat="45.72483" lon="5.24415">
        <ele>225</ele>
      </trkpt>
      <trkpt lat="45.72475" lon="5.24338">
        <ele>229.8</ele>
      </trkpt>
      <trkpt lat="45.7246" lon="5.24273">
        <ele>231.1</ele>
      </trkpt>
      <trkpt lat="45.72457" lon="5.24188">
        <ele>231.5</ele>
      </trkpt>
      <trkpt lat="45.72448" lon="5.24119">
        <ele>229</ele>
      </trkpt>
      <trkpt lat="45.72439" lon="5.24031">
        <ele>223.9</ele>
      </trkpt>
      <trkpt lat="45.72437" lon="5.23959">
        <ele>218.2</ele>
      </trkpt>
      <trkpt lat="45.72436" lon="5.23913">
        <ele>214.4</ele>
      </trkpt>
      <trkpt lat="45.72426" lon="5.23883">
        <ele>213.3</ele>
      </trkpt>
      <trkpt lat="45.72417" lon="5.23814">
        <ele>212.2</ele>
      </trkpt>
      <trkpt lat="45.72409" lon="5.23755">
        <ele>213</ele>
      </trkpt>
      <trkpt lat="45.72391" lon="5.23668">
        <ele>211.3</ele>
      </trkpt>
      <trkpt lat="45.72383" lon="5.23596">
        <ele>212.4</ele>
      </trkpt>
      <trkpt lat="45.72387" lon="5.23512">
        <ele>212.3</ele>
      </trkpt>
      <trkpt lat="45.72387" lon="5.23426">
        <ele>210.5</ele>
      </trkpt>
      <trkpt lat="45.72383" lon="5.23334">
        <ele>210.4</ele>
      </trkpt>
      <trkpt lat="45.72384" lon="5.2326">
        <ele>210.2</ele>
      </trkpt>
      <trkpt lat="45.72385" lon="5.23211">
        <ele>210.4</ele>
      </trkpt>
      <trkpt lat="45.7238" lon="5.23153">
        <ele>210.8</ele>
      </trkpt>
      <trkpt lat="45.72383" lon="5.23102">
        <ele>210.5</ele>
      </trkpt>
      <trkpt lat="45.72391" lon="5.23063">
        <ele>210.4</ele>
      </trkpt>
      <trkpt lat="45.72396" lon="5.23021">
        <ele>210.6</ele>
      </trkpt>
      <trkpt lat="45.72383" lon="5.22986">
        <ele>210.4</ele>
      </trkpt>
      <trkpt lat="45.72376" lon="5.22914">
        <ele>209.5</ele>
      </trkpt>
      <trkpt lat="45.72374" lon="5.22848">
        <ele>209.5</ele>
      </trkpt>
      <trkpt lat="45.72376" lon="5.22776">
        <ele>208.8</ele>
      </trkpt>
      <trkpt lat="45.72379" lon="5.22706">
        <ele>207.9</ele>
      </trkpt>
      <trkpt lat="45.72384" lon="5.22648">
        <ele>207.3</ele>
      </trkpt>
      <trkpt lat="45.72393" lon="5.22608">
        <ele>207.1</ele>
      </trkpt>
      <trkpt lat="45.72393" lon="5.22573">
        <ele>207.1</ele>
      </trkpt>
      <trkpt lat="45.72384" lon="5.22526">
        <ele>207.5</ele>
      </trkpt>
      <trkpt lat="45.7238" lon="5.2242">
        <ele>207</ele>
      </trkpt>
      <trkpt lat="45.72379" lon="5.22315">
        <ele>207.8</ele>
      </trkpt>
      <trkpt lat="45.72376" lon="5.22196">
        <ele>207.7</ele>
      </trkpt>
      <trkpt lat="45.72371" lon="5.22111">
        <ele>208.6</ele>
      </trkpt>
      <trkpt lat="45.72359" lon="5.22009">
        <ele>209</ele>
      </trkpt>
      <trkpt lat="45.72361" lon="5.21965">
        <ele>209.3</ele>
      </trkpt>
      <trkpt lat="45.72346" lon="5.21853">
        <ele>210.5</ele>
      </trkpt>
      <trkpt lat="45.72346" lon="5.218">
        <ele>210</ele>
      </trkpt>
      <trkpt lat="45.72347" lon="5.21743">
        <ele>208.9</ele>
      </trkpt>
      <trkpt lat="45.72325" lon="5.21704">
        <ele>208.5</ele>
      </trkpt>
      <trkpt lat="45.72314" lon="5.21655">
        <ele>208.2</ele>
      </trkpt>
      <trkpt lat="45.72273" lon="5.21499">
        <ele>210.3</ele>
      </trkpt>
      <trkpt lat="45.72231" lon="5.2135">
        <ele>210.4</ele>
      </trkpt>
      <trkpt lat="45.7221" lon="5.21271">
        <ele>209.3</ele>
      </trkpt>
      <trkpt lat="45.72171" lon="5.21131">
        <ele>208</ele>
      </trkpt>
      <trkpt lat="45.72148" lon="5.21038">
        <ele>208.1</ele>
      </trkpt>
      <trkpt lat="45.7213" lon="5.20963">
        <ele>208.2</ele>
      </trkpt>
      <trkpt lat="45.72116" lon="5.20893">
        <ele>207.7</ele>
      </trkpt>
      <trkpt lat="45.72089" lon="5.20808">
        <ele>207</ele>
      </trkpt>
      <trkpt lat="45.72059" lon="5.20689">
        <ele>207</ele>
      </trkpt>
      <trkpt lat="45.72025" lon="5.20568">
        <ele>206.4</ele>
      </trkpt>
      <trkpt lat="45.71997" lon="5.20439">
        <ele>207</ele>
      </trkpt>
      <trkpt lat="45.71977" lon="5.20351">
        <ele>207.3</ele>
      </trkpt>
      <trkpt lat="45.71953" lon="5.20263">
        <ele>207.9</ele>
      </trkpt>
      <trkpt lat="45.71925" lon="5.20136">
        <ele>208.4</ele>
      </trkpt>
      <trkpt lat="45.71907" lon="5.20044">
        <ele>208.5</ele>
      </trkpt>
      <trkpt lat="45.71883" lon="5.19946">
        <ele>208</ele>
      </trkpt>
      <trkpt lat="45.71859" lon="5.1987">
        <ele>207.8</ele>
      </trkpt>
      <trkpt lat="45.71828" lon="5.19771">
        <ele>208.1</ele>
      </trkpt>
      <trkpt lat="45.71802" lon="5.19706">
        <ele>208.2</ele>
      </trkpt>
      <trkpt lat="45.71777" lon="5.19623">
        <ele>207.5</ele>
      </trkpt>
      <trkpt lat="45.71754" lon="5.19535">
        <ele>207.6</ele>
      </trkpt>
      <trkpt lat="45.7173" lon="5.19449">
        <ele>208.3</ele>
      </trkpt>
      <trkpt lat="45.71719" lon="5.1939">
        <ele>208.4</ele>
      </trkpt>
      <trkpt lat="45.71716" lon="5.19315">
        <ele>208.1</ele>
      </trkpt>
      <trkpt lat="45.71718" lon="5.19192">
        <ele>206.7</ele>
      </trkpt>
      <trkpt lat="45.7172" lon="5.19106">
        <ele>206.2</ele>
      </trkpt>
      <trkpt lat="45.71722" lon="5.18967">
        <ele>207.4</ele>
      </trkpt>
      <trkpt lat="45.71726" lon="5.18869">
        <ele>208.5</ele>
      </trkpt>
      <trkpt lat="45.71735" lon="5.18831">
        <ele>208.8</ele>
      </trkpt>
      <trkpt lat="45.71755" lon="5.18786">
        <ele>208.6</ele>
      </trkpt>
      <trkpt lat="45.71742" lon="5.18754">
        <ele>208.2</ele>
      </trkpt>
      <trkpt lat="45.71732" lon="5.18717">
        <ele>208.7</ele>
      </trkpt>
      <trkpt lat="45.7173" lon="5.18654">
        <ele>209.5</ele>
      </trkpt>
      <trkpt lat="45.71725" lon="5.18556">
        <ele>210.5</ele>
      </trkpt>
      <trkpt lat="45.71717" lon="5.18432">
        <ele>209.5</ele>
      </trkpt>
      <trkpt lat="45.71707" lon="5.18291">
        <ele>209.3</ele>
      </trkpt>
      <trkpt lat="45.71698" lon="5.18167">
        <ele>209</ele>
      </trkpt>
      <trkpt lat="45.71688" lon="5.18027">
        <ele>209.3</ele>
      </trkpt>
      <trkpt lat="45.71676" lon="5.17824">
        <ele>209.8</ele>
      </trkpt>
      <trkpt lat="45.71668" lon="5.1773">
        <ele>208.8</ele>
      </trkpt>
      <trkpt lat="45.71658" lon="5.17602">
        <ele>208.7</ele>
      </trkpt>
      <trkpt lat="45.71658" lon="5.17469">
        <ele>208.1</ele>
      </trkpt>
      <trkpt lat="45.71656" lon="5.17361">
        <ele>208.8</ele>
      </trkpt>
      <trkpt lat="45.71655" lon="5.17287">
        <ele>210.1</ele>
      </trkpt>
      <trkpt lat="45.71646" lon="5.17154">
        <ele>211.2</ele>
      </trkpt>
      <trkpt lat="45.71635" lon="5.17011">
        <ele>211</ele>
      </trkpt>
      <trkpt lat="45.7161" lon="5.16753">
        <ele>207</ele>
      </trkpt>
      <trkpt lat="45.71607" lon="5.16654">
        <ele>208</ele>
      </trkpt>
      <trkpt lat="45.71594" lon="5.16549">
        <ele>207.6</ele>
      </trkpt>
      <trkpt lat="45.71583" lon="5.16414">
        <ele>207</ele>
      </trkpt>
      <trkpt lat="45.71573" lon="5.16287">
        <ele>207.6</ele>
      </trkpt>
      <trkpt lat="45.71565" lon="5.16174">
        <ele>208</ele>
      </trkpt>
      <trkpt lat="45.71552" lon="5.16046">
        <ele>208.9</ele>
      </trkpt>
      <trkpt lat="45.71546" lon="5.15964">
        <ele>208</ele>
      </trkpt>
      <trkpt lat="45.7154" lon="5.15868">
        <ele>206.9</ele>
      </trkpt>
      <trkpt lat="45.7153" lon="5.15748">
        <ele>206.4</ele>
      </trkpt>
      <trkpt lat="45.7152" lon="5.15609">
        <ele>207</ele>
      </trkpt>
      <trkpt lat="45.71507" lon="5.15514">
        <ele>206.9</ele>
      </trkpt>
      <trkpt lat="45.71497" lon="5.15489">
        <ele>206</ele>
        <time>2023-04-23T13:18:19Z</time>
      </trkpt>
      <trkpt lat="45.71494" lon="5.1539">
        <ele>208.3</ele>
      </trkpt>
      <trkpt lat="45.71488" lon="5.15294">
        <ele>209.5</ele>
      </trkpt>
      <trkpt lat="45.71481" lon="5.15242">
        <ele>210.3</ele>
      </trkpt>
      <trkpt lat="45.71469" lon="5.15204">
        <ele>212.3</ele>
      </trkpt>
      <trkpt lat="45.71442" lon="5.15185">
        <ele>214</ele>
      </trkpt>
      <trkpt lat="45.71399" lon="5.1518">
        <ele>215.7</ele>
      </trkpt>
      <trkpt lat="45.71342" lon="5.1518">
        <ele>217.6</ele>
      </trkpt>
      <trkpt lat="45.71299" lon="5.15178">
        <ele>219.8</ele>
      </trkpt>
      <trkpt lat="45.71281" lon="5.15161">
        <ele>221.9</ele>
      </trkpt>
      <trkpt lat="45.71264" lon="5.15117">
        <ele>224.9</ele>
      </trkpt>
      <trkpt lat="45.71282" lon="5.1501">
        <ele>225.3</ele>
      </trkpt>
      <trkpt lat="45.71309" lon="5.14867">
        <ele>224.4</ele>
      </trkpt>
      <trkpt lat="45.71337" lon="5.1472">
        <ele>223.9</ele>
      </trkpt>
      <trkpt lat="45.71363" lon="5.14554">
        <ele>223.2</ele>
      </trkpt>
      <trkpt lat="45.71384" lon="5.14391">
        <ele>226.1</ele>
      </trkpt>
      <trkpt lat="45.71392" lon="5.14293">
        <ele>227.1</ele>
      </trkpt>
      <trkpt lat="45.71394" lon="5.14145">
        <ele>226.7</ele>
      </trkpt>
      <trkpt lat="45.71398" lon="5.14">
        <ele>225.4</ele>
      </trkpt>
      <trkpt lat="45.71399" lon="5.13881">
        <ele>224.6</ele>
      </trkpt>
      <trkpt lat="45.71401" lon="5.13794">
        <ele>225.1</ele>
      </trkpt>
      <trkpt lat="45.7141" lon="5.13733">
        <ele>224.8</ele>
      </trkpt>
      <trkpt lat="45.71412" lon="5.13628">
        <ele>224</ele>
      </trkpt>
      <trkpt lat="45.71416" lon="5.13545">
        <ele>224.5</ele>
      </trkpt>
      <trkpt lat="45.71417" lon="5.13469">
        <ele>224.6</ele>
      </trkpt>
      <trkpt lat="45.71418" lon="5.13408">
        <ele>223.9</ele>
      </trkpt>
      <trkpt lat="45.71413" lon="5.13328">
        <ele>223</ele>
      </trkpt>
      <trkpt lat="45.71399" lon="5.13283">
        <ele>223.1</ele>
      </trkpt>
      <trkpt lat="45.71395" lon="5.13211">
        <ele>224.1</ele>
      </trkpt>
      <trkpt lat="45.7139" lon="5.13163">
        <ele>225</ele>
      </trkpt>
      <trkpt lat="45.71341" lon="5.13102">
        <ele>224.9</ele>
      </trkpt>
      <trkpt lat="45.71295" lon="5.13042">
        <ele>226.7</ele>
      </trkpt>
      <trkpt lat="45.71254" lon="5.12995">
        <ele>228.2</ele>
      </trkpt>
      <trkpt lat="45.71231" lon="5.12961">
        <ele>229.5</ele>
      </trkpt>
      <trkpt lat="45.71222" lon="5.12918">
        <ele>231</ele>
      </trkpt>
      <trkpt lat="45.71219" lon="5.12863">
        <ele>231.2</ele>
      </trkpt>
      <trkpt lat="45.71222" lon="5.12783">
        <ele>231.8</ele>
      </trkpt>
      <trkpt lat="45.71225" lon="5.12737">
        <ele>232.4</ele>
      </trkpt>
      <trkpt lat="45.71197" lon="5.12713">
        <ele>234.5</ele>
      </trkpt>
      <trkpt lat="45.71172" lon="5.12671">
        <ele>237.6</ele>
      </trkpt>
      <trkpt lat="45.71143" lon="5.12611">
        <ele>240.2</ele>
      </trkpt>
      <trkpt lat="45.71123" lon="5.12563">
        <ele>241.3</ele>
      </trkpt>
      <trkpt lat="45.71105" lon="5.12534">
        <ele>241.6</ele>
      </trkpt>
      <trkpt lat="45.71049" lon="5.12507">
        <ele>241.8</ele>
      </trkpt>
      <trkpt lat="45.71038" lon="5.12468">
        <ele>243.4</ele>
      </trkpt>
      <trkpt lat="45.71017" lon="5.12417">
        <ele>245.2</ele>
      </trkpt>
      <trkpt lat="45.70994" lon="5.12361">
        <ele>245.6</ele>
      </trkpt>
      <trkpt lat="45.70978" lon="5.12318">
        <ele>246.1</ele>
      </trkpt>
      <trkpt lat="45.70963" lon="5.12258">
        <ele>246.8</ele>
      </trkpt>
      <trkpt lat="45.70951" lon="5.12207">
        <ele>249.6</ele>
      </trkpt>
      <trkpt lat="45.70952" lon="5.12137">
        <ele>253.2</ele>
      </trkpt>
      <trkpt lat="45.70939" lon="5.12077">
        <ele>256.4</ele>
      </trkpt>
      <trkpt lat="45.70927" lon="5.12035">
        <ele>258.3</ele>
      </trkpt>
      <trkpt lat="45.70886" lon="5.12014">
        <ele>258.7</ele>
      </trkpt>
      <trkpt lat="45.70831" lon="5.11987">
        <ele>258.9</ele>
      </trkpt>
      <trkpt lat="45.70784" lon="5.11981">
        <ele>257.5</ele>
      </trkpt>
      <trkpt lat="45.70735" lon="5.11972">
        <ele>256.6</ele>
      </trkpt>
      <trkpt lat="45.70689" lon="5.11968">
        <ele>256.4</ele>
      </trkpt>
      <trkpt lat="45.70662" lon="5.11942">
        <ele>257.1</ele>
      </trkpt>
      <trkpt lat="45.70616" lon="5.11902">
        <ele>258.1</ele>
      </trkpt>
      <trkpt lat="45.70567" lon="5.11875">
        <ele>257</ele>
      </trkpt>
      <trkpt lat="45.70534" lon="5.11843">
        <ele>255.9</ele>
      </trkpt>
      <trkpt lat="45.70512" lon="5.11823">
        <ele>255.3</ele>
      </trkpt>
      <trkpt lat="45.70476" lon="5.11853">
        <ele>254.7</ele>
      </trkpt>
      <trkpt lat="45.70438" lon="5.11878">
        <ele>254.3</ele>
      </trkpt>
      <trkpt lat="45.70394" lon="5.11904">
        <ele>254.3</ele>
      </trkpt>
      <trkpt lat="45.70352" lon="5.11956">
        <ele>254.9</ele>
      </trkpt>
      <trkpt lat="45.70301" lon="5.12047">
        <ele>255.7</ele>
      </trkpt>
      <trkpt lat="45.70249" lon="5.12101">
        <ele>256.2</ele>
      </trkpt>
      <trkpt lat="45.70204" lon="5.12025">
        <ele>257.7</ele>
      </trkpt>
      <trkpt lat="45.70222" lon="5.11984">
        <ele>257.1</ele>
      </trkpt>
      <trkpt lat="45.70246" lon="5.11909">
        <ele>257.2</ele>
      </trkpt>
      <trkpt lat="45.70266" lon="5.1184">
        <ele>257.5</ele>
      </trkpt>
      <trkpt lat="45.70229" lon="5.11837">
        <ele>258.5</ele>
      </trkpt>
      <trkpt lat="45.7019" lon="5.1182">
        <ele>260</ele>
      </trkpt>
      <trkpt lat="45.70138" lon="5.11786">
        <ele>262</ele>
      </trkpt>
      <trkpt lat="45.70073" lon="5.11744">
        <ele>263.2</ele>
      </trkpt>
      <trkpt lat="45.70021" lon="5.11713">
        <ele>263.9</ele>
      </trkpt>
      <trkpt lat="45.69967" lon="5.11676">
        <ele>264.9</ele>
      </trkpt>
      <trkpt lat="45.69887" lon="5.11622">
        <ele>266.1</ele>
      </trkpt>
      <trkpt lat="45.69827" lon="5.11603">
        <ele>266</ele>
      </trkpt>
      <trkpt lat="45.69782" lon="5.11601">
        <ele>266.1</ele>
      </trkpt>
      <trkpt lat="45.69738" lon="5.11606">
        <ele>266.8</ele>
      </trkpt>
      <trkpt lat="45.69696" lon="5.11621">
        <ele>268.7</ele>
      </trkpt>
      <trkpt lat="45.69677" lon="5.11614">
        <ele>269.5</ele>
      </trkpt>
      <trkpt lat="45.69591" lon="5.11589">
        <ele>271.6</ele>
      </trkpt>
      <trkpt lat="45.69527" lon="5.11585">
        <ele>269.9</ele>
      </trkpt>
      <trkpt lat="45.69464" lon="5.11573">
        <ele>269.6</ele>
      </trkpt>
      <trkpt lat="45.6941" lon="5.11588">
        <ele>270.1</ele>
      </trkpt>
      <trkpt lat="45.69343" lon="5.11597">
        <ele>271.6</ele>
      </trkpt>
      <trkpt lat="45.69264" lon="5.11596">
        <ele>272.7</ele>
      </trkpt>
      <trkpt lat="45.69195" lon="5.11587">
        <ele>271</ele>
        <time>2023-04-23T13:33:44Z</time>
      </trkpt>
      <trkpt lat="45.69171" lon="5.11512">
        <ele>272</ele>
        <time>2023-04-23T13:33:55Z</time>
      </trkpt>
      <trkpt lat="45.6917" lon="5.11432">
        <ele>274</ele>
        <time>2023-04-23T13:34:05Z</time>
      </trkpt>
      <trkpt lat="45.69129" lon="5.11311">
        <ele>275</ele>
        <time>2023-04-23T13:34:21Z</time>
      </trkpt>
      <trkpt lat="45.69085" lon="5.11212">
        <ele>277</ele>
        <time>2023-04-23T13:34:36Z</time>
      </trkpt>
      <trkpt lat="45.6904" lon="5.11154">
        <ele>278</ele>
        <time>2023-04-23T13:34:47Z</time>
      </trkpt>
      <trkpt lat="45.68925" lon="5.11033">
        <ele>279</ele>
        <time>2023-04-23T13:35:12Z</time>
      </trkpt>
      <trkpt lat="45.68859" lon="5.10838">
        <ele>277</ele>
        <time>2023-04-23T13:35:39Z</time>
      </trkpt>
      <trkpt lat="45.68821" lon="5.10821">
        <ele>276</ele>
        <time>2023-04-23T13:35:46Z</time>
      </trkpt>
      <trkpt lat="45.68793" lon="5.10785">
        <ele>275</ele>
        <time>2023-04-23T13:35:53Z</time>
      </trkpt>
      <trkpt lat="45.68772" lon="5.10724">
        <ele>273</ele>
        <time>2023-04-23T13:36:01Z</time>
      </trkpt>
      <trkpt lat="45.68677" lon="5.10542">
        <ele>271</ele>
        <time>2023-04-23T13:36:29Z</time>
      </trkpt>
      <trkpt lat="45.68623" lon="5.10422">
        <ele>269</ele>
        <time>2023-04-23T13:36:47Z</time>
      </trkpt>
      <trkpt lat="45.68613" lon="5.10345">
        <ele>270</ele>
        <time>2023-04-23T13:36:57Z</time>
      </trkpt>
      <trkpt lat="45.68586" lon="5.10035">
        <ele>264</ele>
        <time>2023-04-23T13:37:36Z</time>
      </trkpt>
      <trkpt lat="45.68597" lon="5.09852">
        <ele>261</ele>
        <time>2023-04-23T13:37:59Z</time>
      </trkpt>
      <trkpt lat="45.68601" lon="5.09706">
        <ele>259</ele>
        <time>2023-04-23T13:38:17Z</time>
      </trkpt>
      <trkpt lat="45.68588" lon="5.0951">
        <ele>257</ele>
        <time>2023-04-23T13:38:41Z</time>
      </trkpt>
      <trkpt lat="45.68603" lon="5.0935">
        <ele>257</ele>
        <time>2023-04-23T13:39:01Z</time>
      </trkpt>
      <trkpt lat="45.68666" lon="5.09043">
        <ele>256</ele>
        <time>2023-04-23T13:39:41Z</time>
      </trkpt>
      <trkpt lat="45.6881" lon="5.08314">
        <ele>251</ele>
        <time>2023-04-23T13:41:15Z</time>
      </trkpt>
      <trkpt lat="45.68881" lon="5.07924">
        <ele>247</ele>
        <time>2023-04-23T13:42:05Z</time>
      </trkpt>
      <trkpt lat="45.68873" lon="5.07818">
        <ele>246</ele>
        <time>2023-04-23T13:42:19Z</time>
      </trkpt>
      <trkpt lat="45.68821" lon="5.07378">
        <ele>246</ele>
        <time>2023-04-23T13:43:14Z</time>
      </trkpt>
      <trkpt lat="45.6878" lon="5.06966">
        <ele>245.3</ele>
        <time>2023-04-23T13:45:02Z</time>
      </trkpt>
      <trkpt lat="45.68731" lon="5.06945">
        <ele>245.4</ele>
      </trkpt>
      <trkpt lat="45.68685" lon="5.06937">
        <ele>244.8</ele>
      </trkpt>
      <trkpt lat="45.68643" lon="5.06924">
        <ele>244.3</ele>
      </trkpt>
      <trkpt lat="45.68603" lon="5.06911">
        <ele>243.5</ele>
      </trkpt>
      <trkpt lat="45.68565" lon="5.06896">
        <ele>243.3</ele>
      </trkpt>
      <trkpt lat="45.68535" lon="5.06889">
        <ele>243.8</ele>
      </trkpt>
      <trkpt lat="45.68499" lon="5.06884">
        <ele>244.4</ele>
      </trkpt>
      <trkpt lat="45.68478" lon="5.06875">
        <ele>244.2</ele>
      </trkpt>
      <trkpt lat="45.6843" lon="5.06867">
        <ele>244.1</ele>
      </trkpt>
      <trkpt lat="45.684" lon="5.06866">
        <ele>243.7</ele>
      </trkpt>
      <trkpt lat="45.68371" lon="5.06859">
        <ele>243.4</ele>
      </trkpt>
      <trkpt lat="45.68335" lon="5.0684">
        <ele>243.7</ele>
      </trkpt>
      <trkpt lat="45.68313" lon="5.06828">
        <ele>243.1</ele>
      </trkpt>
      <trkpt lat="45.68285" lon="5.06803">
        <ele>242.5</ele>
      </trkpt>
      <trkpt lat="45.68261" lon="5.06755">
        <ele>243.1</ele>
      </trkpt>
      <trkpt lat="45.68251" lon="5.06711">
        <ele>241.6</ele>
        <time>2023-04-23T13:46:10Z</time>
      </trkpt>
      <trkpt lat="45.6825" lon="5.06654">
        <ele>240.3</ele>
      </trkpt>
      <trkpt lat="45.68259" lon="5.06608">
        <ele>241.5</ele>
      </trkpt>
      <trkpt lat="45.68288" lon="5.06533">
        <ele>241.7</ele>
      </trkpt>
      <trkpt lat="45.68304" lon="5.06484">
        <ele>240.9</ele>
      </trkpt>
      <trkpt lat="45.68315" lon="5.06438">
        <ele>239.6</ele>
      </trkpt>
      <trkpt lat="45.68333" lon="5.06396">
        <ele>239.2</ele>
      </trkpt>
      <trkpt lat="45.68346" lon="5.06347">
        <ele>240.1</ele>
      </trkpt>
      <trkpt lat="45.68358" lon="5.0631">
        <ele>240.2</ele>
      </trkpt>
      <trkpt lat="45.68367" lon="5.0625">
        <ele>240</ele>
      </trkpt>
      <trkpt lat="45.68373" lon="5.0622">
        <ele>239.8</ele>
      </trkpt>
      <trkpt lat="45.68386" lon="5.06183">
        <ele>239.7</ele>
      </trkpt>
      <trkpt lat="45.68416" lon="5.06141">
        <ele>240.3</ele>
        <time>2023-04-23T13:47:31Z</time>
      </trkpt>
      <trkpt lat="45.68413" lon="5.06089">
        <ele>240.8</ele>
      </trkpt>
      <trkpt lat="45.68424" lon="5.06029">
        <ele>239.6</ele>
      </trkpt>
      <trkpt lat="45.68431" lon="5.05991">
        <ele>238.8</ele>
      </trkpt>
      <trkpt lat="45.68445" lon="5.05943">
        <ele>238.1</ele>
      </trkpt>
      <trkpt lat="45.68466" lon="5.05865">
        <ele>239.2</ele>
      </trkpt>
      <trkpt lat="45.68494" lon="5.05812">
        <ele>240.6</ele>
      </trkpt>
      <trkpt lat="45.68514" lon="5.05777">
        <ele>240.4</ele>
      </trkpt>
      <trkpt lat="45.68536" lon="5.0574">
        <ele>240.2</ele>
      </trkpt>
      <trkpt lat="45.68554" lon="5.05714">
        <ele>239.9</ele>
      </trkpt>
      <trkpt lat="45.68582" lon="5.0568">
        <ele>240.1</ele>
      </trkpt>
      <trkpt lat="45.68599" lon="5.05653">
        <ele>239.8</ele>
      </trkpt>
      <trkpt lat="45.68617" lon="5.0563">
        <ele>239.8</ele>
      </trkpt>
      <trkpt lat="45.68628" lon="5.056">
        <ele>239.9</ele>
      </trkpt>
      <trkpt lat="45.68647" lon="5.05568">
        <ele>239.8</ele>
      </trkpt>
      <trkpt lat="45.68679" lon="5.05537">
        <ele>239.4</ele>
      </trkpt>
      <trkpt lat="45.68663" lon="5.0549">
        <ele>238.9</ele>
      </trkpt>
      <trkpt lat="45.6866" lon="5.05435">
        <ele>238.3</ele>
      </trkpt>
      <trkpt lat="45.68652" lon="5.05391">
        <ele>237.9</ele>
      </trkpt>
      <trkpt lat="45.68644" lon="5.05328">
        <ele>237.6</ele>
      </trkpt>
      <trkpt lat="45.68641" lon="5.05284">
        <ele>237.8</ele>
      </trkpt>
      <trkpt lat="45.68636" lon="5.05249">
        <ele>238.1</ele>
      </trkpt>
      <trkpt lat="45.68637" lon="5.05197">
        <ele>239.6</ele>
      </trkpt>
      <trkpt lat="45.68638" lon="5.05159">
        <ele>240.6</ele>
      </trkpt>
      <trkpt lat="45.68635" lon="5.05129">
        <ele>241.5</ele>
      </trkpt>
      <trkpt lat="45.68658" lon="5.05067">
        <ele>240.4</ele>
      </trkpt>
      <trkpt lat="45.68674" lon="5.05024">
        <ele>240.1</ele>
      </trkpt>
      <trkpt lat="45.68684" lon="5.04989">
        <ele>241</ele>
      </trkpt>
      <trkpt lat="45.68691" lon="5.04938">
        <ele>244.3</ele>
      </trkpt>
      <trkpt lat="45.68704" lon="5.04903">
        <ele>245.9</ele>
      </trkpt>
      <trkpt lat="45.68708" lon="5.04884">
        <ele>246.8</ele>
      </trkpt>
      <trkpt lat="45.68686" lon="5.04847">
        <ele>248.7</ele>
      </trkpt>
      <trkpt lat="45.68663" lon="5.04833">
        <ele>249</ele>
      </trkpt>
      <trkpt lat="45.68631" lon="5.04812">
        <ele>249.6</ele>
      </trkpt>
      <trkpt lat="45.68613" lon="5.04786">
        <ele>250</ele>
      </trkpt>
      <trkpt lat="45.68627" lon="5.04746">
        <ele>251.1</ele>
      </trkpt>
      <trkpt lat="45.68632" lon="5.04697">
        <ele>251.1</ele>
      </trkpt>
      <trkpt lat="45.68639" lon="5.0467">
        <ele>251</ele>
      </trkpt>
      <trkpt lat="45.68647" lon="5.04646">
        <ele>250.6</ele>
      </trkpt>
      <trkpt lat="45.68662" lon="5.0459">
        <ele>249.2</ele>
      </trkpt>
      <trkpt lat="45.68645" lon="5.04564">
        <ele>249.5</ele>
      </trkpt>
      <trkpt lat="45.68636" lon="5.04542">
        <ele>249.7</ele>
      </trkpt>
      <trkpt lat="45.68658" lon="5.04521">
        <ele>249.2</ele>
      </trkpt>
      <trkpt lat="45.68681" lon="5.04495">
        <ele>249.4</ele>
      </trkpt>
      <trkpt lat="45.68695" lon="5.04466">
        <ele>250.3</ele>
      </trkpt>
      <trkpt lat="45.68667" lon="5.04429">
        <ele>249.9</ele>
      </trkpt>
      <trkpt lat="45.68645" lon="5.04403">
        <ele>250.9</ele>
      </trkpt>
      <trkpt lat="45.68624" lon="5.04389">
        <ele>252.1</ele>
      </trkpt>
      <trkpt lat="45.68585" lon="5.04357">
        <ele>254.8</ele>
      </trkpt>
      <trkpt lat="45.68562" lon="5.04353">
        <ele>256.1</ele>
      </trkpt>
      <trkpt lat="45.68543" lon="5.04349">
        <ele>257.2</ele>
      </trkpt>
      <trkpt lat="45.68509" lon="5.04328">
        <ele>260</ele>
      </trkpt>
      <trkpt lat="45.68492" lon="5.04322">
        <ele>261.4</ele>
      </trkpt>
      <trkpt lat="45.68464" lon="5.04304">
        <ele>264.1</ele>
      </trkpt>
      <trkpt lat="45.68453" lon="5.0429">
        <ele>265.3</ele>
      </trkpt>
      <trkpt lat="45.68466" lon="5.04234">
        <ele>268.1</ele>
      </trkpt>
      <trkpt lat="45.68472" lon="5.04198">
        <ele>269.6</ele>
      </trkpt>
      <trkpt lat="45.68477" lon="5.04152">
        <ele>270.6</ele>
      </trkpt>
      <trkpt lat="45.68482" lon="5.04114">
        <ele>269.4</ele>
      </trkpt>
      <trkpt lat="45.68488" lon="5.04087">
        <ele>268.4</ele>
      </trkpt>
      <trkpt lat="45.68495" lon="5.04052">
        <ele>268.1</ele>
      </trkpt>
      <trkpt lat="45.685" lon="5.04014">
        <ele>268</ele>
      </trkpt>
      <trkpt lat="45.68501" lon="5.03971">
        <ele>269.1</ele>
      </trkpt>
      <trkpt lat="45.68492" lon="5.03924">
        <ele>271</ele>
      </trkpt>
      <trkpt lat="45.6847" lon="5.03876">
        <ele>272</ele>
      </trkpt>
      <trkpt lat="45.68458" lon="5.03843">
        <ele>272.5</ele>
      </trkpt>
      <trkpt lat="45.68442" lon="5.03782">
        <ele>270.4</ele>
      </trkpt>
      <trkpt lat="45.68428" lon="5.03746">
        <ele>268.9</ele>
      </trkpt>
      <trkpt lat="45.68415" lon="5.03718">
        <ele>268.3</ele>
      </trkpt>
      <trkpt lat="45.68404" lon="5.03682">
        <ele>268.3</ele>
      </trkpt>
      <trkpt lat="45.684" lon="5.03636">
        <ele>269.1</ele>
        <time>2023-04-23T13:56:30Z</time>
      </trkpt>
      <trkpt lat="45.684" lon="5.03606">
        <ele>269.9</ele>
      </trkpt>
      <trkpt lat="45.68398" lon="5.03535">
        <ele>272.3</ele>
      </trkpt>
      <trkpt lat="45.68403" lon="5.03502">
        <ele>272.9</ele>
        <time>2023-04-23T13:56:39Z</time>
      </trkpt>
      <trkpt lat="45.68395" lon="5.03417">
        <ele>277</ele>
      </trkpt>
      <trkpt lat="45.68367" lon="5.03399">
        <ele>278.6</ele>
      </trkpt>
      <trkpt lat="45.68392" lon="5.03171">
        <ele>283</ele>
        <time>2023-04-23T13:57:13Z</time>
      </trkpt>
      <trkpt lat="45.68425" lon="5.03009">
        <ele>280</ele>
        <time>2023-04-23T13:57:34Z</time>
      </trkpt>
      <trkpt lat="45.68444" lon="5.02947">
        <ele>280</ele>
        <time>2023-04-23T13:57:42Z</time>
      </trkpt>
      <trkpt lat="45.68491" lon="5.02889">
        <ele>280</ele>
        <time>2023-04-23T13:57:53Z</time>
      </trkpt>
      <trkpt lat="45.68529" lon="5.02809">
        <ele>281</ele>
        <time>2023-04-23T13:58:05Z</time>
      </trkpt>
      <trkpt lat="45.68538" lon="5.0272">
        <ele>281</ele>
        <time>2023-04-23T13:58:17Z</time>
      </trkpt>
      <trkpt lat="45.68528" lon="5.02607">
        <ele>283</ele>
        <time>2023-04-23T13:58:31Z</time>
      </trkpt>
      <trkpt lat="45.68536" lon="5.0249">
        <ele>285</ele>
        <time>2023-04-23T13:58:45Z</time>
      </trkpt>
      <trkpt lat="45.68503" lon="5.02482">
        <ele>285</ele>
        <time>2023-04-23T13:58:51Z</time>
      </trkpt>
      <trkpt lat="45.68474" lon="5.02478">
        <ele>283</ele>
        <time>2023-04-23T13:58:56Z</time>
      </trkpt>
      <trkpt lat="45.68449" lon="5.02529">
        <ele>280</ele>
        <time>2023-04-23T13:59:04Z</time>
      </trkpt>
      <trkpt lat="45.6841" lon="5.02524">
        <ele>277</ele>
        <time>2023-04-23T13:59:11Z</time>
      </trkpt>
      <trkpt lat="45.68377" lon="5.02503">
        <ele>276</ele>
        <time>2023-04-23T13:59:18Z</time>
      </trkpt>
      <trkpt lat="45.68359" lon="5.02451">
        <ele>274</ele>
        <time>2023-04-23T13:59:25Z</time>
      </trkpt>
      <trkpt lat="45.68336" lon="5.0241">
        <ele>271</ele>
        <time>2023-04-23T13:59:31Z</time>
      </trkpt>
      <trkpt lat="45.68291" lon="5.02365">
        <ele>271</ele>
        <time>2023-04-23T13:59:41Z</time>
      </trkpt>
      <trkpt lat="45.68247" lon="5.02334">
        <ele>269</ele>
        <time>2023-04-23T13:59:50Z</time>
      </trkpt>
      <trkpt lat="45.6821" lon="5.02304">
        <ele>267</ele>
        <time>2023-04-23T13:59:57Z</time>
      </trkpt>
      <trkpt lat="45.68185" lon="5.02263">
        <ele>263</ele>
        <time>2023-04-23T14:00:04Z</time>
      </trkpt>
      <trkpt lat="45.68151" lon="5.0223">
        <ele>259</ele>
        <time>2023-04-23T14:00:11Z</time>
      </trkpt>
      <trkpt lat="45.68108" lon="5.02201">
        <ele>254</ele>
        <time>2023-04-23T14:00:20Z</time>
      </trkpt>
      <trkpt lat="45.67948" lon="5.02109">
        <ele>246</ele>
        <time>2023-04-23T14:00:51Z</time>
      </trkpt>
      <trkpt lat="45.67908" lon="5.02089">
        <ele>248</ele>
        <time>2023-04-23T14:00:58Z</time>
      </trkpt>
      <trkpt lat="45.679" lon="5.02028">
        <ele>246</ele>
        <time>2023-04-23T14:01:06Z</time>
      </trkpt>
      <trkpt lat="45.67885" lon="5.01965">
        <ele>244</ele>
        <time>2023-04-23T14:01:14Z</time>
      </trkpt>
      <trkpt lat="45.67902" lon="5.01884">
        <ele>243</ele>
        <time>2023-04-23T14:01:25Z</time>
      </trkpt>
      <trkpt lat="45.67908" lon="5.01792">
        <ele>244</ele>
        <time>2023-04-23T14:01:36Z</time>
      </trkpt>
      <trkpt lat="45.67927" lon="5.01724">
        <ele>244</ele>
        <time>2023-04-23T14:01:45Z</time>
      </trkpt>
      <trkpt lat="45.67935" lon="5.01652">
        <ele>243</ele>
        <time>2023-04-23T14:01:54Z</time>
      </trkpt>
      <trkpt lat="45.67938" lon="5.01587">
        <ele>243</ele>
        <time>2023-04-23T14:02:02Z</time>
      </trkpt>
      <trkpt lat="45.67946" lon="5.01531">
        <ele>242</ele>
        <time>2023-04-23T14:02:10Z</time>
      </trkpt>
      <trkpt lat="45.67943" lon="5.01456">
        <ele>240</ele>
        <time>2023-04-23T14:02:19Z</time>
      </trkpt>
      <trkpt lat="45.67919" lon="5.01387">
        <ele>238</ele>
        <time>2023-04-23T14:02:28Z</time>
      </trkpt>
      <trkpt lat="45.67884" lon="5.01307">
        <ele>237</ele>
        <time>2023-04-23T14:02:40Z</time>
      </trkpt>
      <trkpt lat="45.67868" lon="5.01232">
        <ele>238</ele>
        <time>2023-04-23T14:02:50Z</time>
      </trkpt>
      <trkpt lat="45.67853" lon="5.01116">
        <ele>237</ele>
        <time>2023-04-23T14:03:05Z</time>
      </trkpt>
      <trkpt lat="45.67831" lon="5.01052">
        <ele>236</ele>
        <time>2023-04-23T14:03:13Z</time>
      </trkpt>
      <trkpt lat="45.67786" lon="5.00665">
        <ele>237</ele>
        <time>2023-04-23T14:04:02Z</time>
      </trkpt>
      <trkpt lat="45.67733" lon="5.00433">
        <ele>237</ele>
        <time>2023-04-23T14:04:33Z</time>
      </trkpt>
      <trkpt lat="45.67707" lon="5.00285">
        <ele>236</ele>
        <time>2023-04-23T14:04:52Z</time>
      </trkpt>
      <trkpt lat="45.67669" lon="5.00123">
        <ele>236</ele>
        <time>2023-04-23T14:05:13Z</time>
      </trkpt>
      <trkpt lat="45.67645" lon="5.00054">
        <ele>235</ele>
        <time>2023-04-23T14:05:22Z</time>
      </trkpt>
      <trkpt lat="45.6761" lon="4.99984">
        <ele>234</ele>
        <time>2023-04-23T14:05:33Z</time>
      </trkpt>
      <trkpt lat="45.67566" lon="4.99918">
        <ele>233</ele>
        <time>2023-04-23T14:05:44Z</time>
      </trkpt>
      <trkpt lat="45.6752" lon="4.99869">
        <ele>233</ele>
        <time>2023-04-23T14:05:55Z</time>
      </trkpt>
      <trkpt lat="45.67484" lon="4.99809">
        <ele>232</ele>
        <time>2023-04-23T14:06:04Z</time>
      </trkpt>
      <trkpt lat="45.67445" lon="4.99713">
        <ele>233</ele>
        <time>2023-04-23T14:06:18Z</time>
      </trkpt>
      <trkpt lat="45.67382" lon="4.99536">
        <ele>233</ele>
        <time>2023-04-23T14:06:43Z</time>
      </trkpt>
      <trkpt lat="45.67351" lon="4.99466">
        <ele>233</ele>
        <time>2023-04-23T14:06:53Z</time>
      </trkpt>
      <trkpt lat="45.67296" lon="4.99353">
        <ele>231</ele>
        <time>2023-04-23T14:07:10Z</time>
      </trkpt>
      <trkpt lat="45.6729" lon="4.99301">
        <ele>231</ele>
        <time>2023-04-23T14:07:17Z</time>
      </trkpt>
      <trkpt lat="45.67278" lon="4.99251">
        <ele>231</ele>
        <time>2023-04-23T14:07:23Z</time>
      </trkpt>
      <trkpt lat="45.67251" lon="4.9919">
        <ele>232</ele>
        <time>2023-04-23T14:07:32Z</time>
      </trkpt>
      <trkpt lat="45.67226" lon="4.99122">
        <ele>229</ele>
        <time>2023-04-23T14:07:42Z</time>
      </trkpt>
      <trkpt lat="45.67189" lon="4.99063">
        <ele>227</ele>
        <time>2023-04-23T14:07:52Z</time>
      </trkpt>
      <trkpt lat="45.67164" lon="4.98994">
        <ele>228</ele>
        <time>2023-04-23T14:08:02Z</time>
      </trkpt>
      <trkpt lat="45.67139" lon="4.98899">
        <ele>226</ele>
        <time>2023-04-23T14:08:14Z</time>
      </trkpt>
      <trkpt lat="45.67126" lon="4.98809">
        <ele>229</ele>
        <time>2023-04-23T14:08:26Z</time>
      </trkpt>
      <trkpt lat="45.67088" lon="4.98623">
        <ele>230</ele>
        <time>2023-04-23T14:08:50Z</time>
      </trkpt>
      <trkpt lat="45.67076" lon="4.98536">
        <ele>230</ele>
        <time>2023-04-23T14:09:01Z</time>
      </trkpt>
      <trkpt lat="45.67062" lon="4.98463">
        <ele>230</ele>
        <time>2023-04-23T14:09:10Z</time>
      </trkpt>
      <trkpt lat="45.67053" lon="4.98384">
        <ele>230</ele>
        <time>2023-04-23T14:09:20Z</time>
      </trkpt>
      <trkpt lat="45.67043" lon="4.98386">
        <ele>230</ele>
        <time>2023-04-23T14:09:22Z</time>
      </trkpt>
      <trkpt lat="45.67031" lon="4.98326">
        <ele>230</ele>
        <time>2023-04-23T14:09:30Z</time>
      </trkpt>
      <trkpt lat="45.67029" lon="4.98295">
        <ele>230</ele>
        <time>2023-04-23T14:09:34Z</time>
      </trkpt>
      <trkpt lat="45.67036" lon="4.98249">
        <ele>230</ele>
        <time>2023-04-23T14:09:39Z</time>
      </trkpt>
      <trkpt lat="45.67032" lon="4.98234">
        <ele>230</ele>
        <time>2023-04-23T14:09:41Z</time>
      </trkpt>
      <trkpt lat="45.67023" lon="4.98222">
        <ele>230</ele>
        <time>2023-04-23T14:09:44Z</time>
      </trkpt>
      <trkpt lat="45.67004" lon="4.98207">
        <ele>230</ele>
        <time>2023-04-23T14:09:47Z</time>
      </trkpt>
      <trkpt lat="45.66997" lon="4.98196">
        <ele>230</ele>
        <time>2023-04-23T14:09:49Z</time>
      </trkpt>
      <trkpt lat="45.66992" lon="4.98166">
        <ele>230</ele>
        <time>2023-04-23T14:09:53Z</time>
      </trkpt>
      <trkpt lat="45.6698" lon="4.98124">
        <ele>229</ele>
        <time>2023-04-23T14:09:59Z</time>
      </trkpt>
      <trkpt lat="45.66971" lon="4.98079">
        <ele>229</ele>
        <time>2023-04-23T14:10:05Z</time>
      </trkpt>
      <trkpt lat="45.66956" lon="4.98039">
        <ele>228</ele>
        <time>2023-04-23T14:10:10Z</time>
      </trkpt>
      <trkpt lat="45.66954" lon="4.98008">
        <ele>228</ele>
        <time>2023-04-23T14:10:14Z</time>
      </trkpt>
      <trkpt lat="45.66922" lon="4.9788">
        <ele>229</ele>
        <time>2023-04-23T14:10:31Z</time>
      </trkpt>
      <trkpt lat="45.66914" lon="4.97835">
        <ele>228</ele>
        <time>2023-04-23T14:10:37Z</time>
      </trkpt>
      <trkpt lat="45.669" lon="4.97712">
        <ele>228</ele>
        <time>2023-04-23T14:10:52Z</time>
      </trkpt>
      <trkpt lat="45.66861" lon="4.97436">
        <ele>224</ele>
        <time>2023-04-23T14:11:27Z</time>
      </trkpt>
      <trkpt lat="45.66847" lon="4.97313">
        <ele>224</ele>
        <time>2023-04-23T14:11:43Z</time>
      </trkpt>
      <trkpt lat="45.66838" lon="4.97093">
        <ele>224</ele>
        <time>2023-04-23T14:12:10Z</time>
      </trkpt>
      <trkpt lat="45.66833" lon="4.97079">
        <ele>224</ele>
        <time>2023-04-23T14:12:12Z</time>
      </trkpt>
      <trkpt lat="45.66824" lon="4.97071">
        <ele>224</ele>
        <time>2023-04-23T14:12:14Z</time>
      </trkpt>
      <trkpt lat="45.66818" lon="4.9706">
        <ele>225</ele>
        <time>2023-04-23T14:12:16Z</time>
      </trkpt>
      <trkpt lat="45.66817" lon="4.97046">
        <ele>225</ele>
        <time>2023-04-23T14:12:17Z</time>
      </trkpt>
      <trkpt lat="45.66829" lon="4.97023">
        <ele>225</ele>
        <time>2023-04-23T14:12:21Z</time>
      </trkpt>
      <trkpt lat="45.66831" lon="4.97009">
        <ele>225</ele>
        <time>2023-04-23T14:12:23Z</time>
      </trkpt>
      <trkpt lat="45.66808" lon="4.96835">
        <ele>224</ele>
        <time>2023-04-23T14:12:45Z</time>
      </trkpt>
      <trkpt lat="45.66791" lon="4.96763">
        <ele>225</ele>
        <time>2023-04-23T14:12:54Z</time>
      </trkpt>
      <trkpt lat="45.66715" lon="4.96589">
        <ele>225</ele>
        <time>2023-04-23T14:13:20Z</time>
      </trkpt>
      <trkpt lat="45.667" lon="4.96531">
        <ele>225</ele>
        <time>2023-04-23T14:13:27Z</time>
      </trkpt>
      <trkpt lat="45.66662" lon="4.96335">
        <ele>225</ele>
        <time>2023-04-23T14:13:53Z</time>
      </trkpt>
      <trkpt lat="45.6668" lon="4.96244">
        <ele>221.1</ele>
        <time>2023-04-23T14:14:02Z</time>
      </trkpt>
      <trkpt lat="45.66712" lon="4.962">
        <ele>220.6</ele>
        <time>2023-04-23T14:14:08Z</time>
      </trkpt>
      <trkpt lat="45.66739" lon="4.96162">
        <ele>219.9</ele>
        <time>2023-04-23T14:14:14Z</time>
      </trkpt>
      <trkpt lat="45.66791" lon="4.96105">
        <ele>219.6</ele>
        <time>2023-04-23T14:14:19Z</time>
      </trkpt>
      <trkpt lat="45.66851" lon="4.96028">
        <ele>219.3</ele>
        <time>2023-04-23T14:14:41Z</time>
      </trkpt>
    </trkseg>
  </trk>
</gpx>